Darstellungsparameter: Aktuell verwendete Einstellungen:
Skalierung der Graphiken ... ?
xyx+y,   Skalierungsfaktor:      Skalierung: Modus: x, Faktor: 1
Darstellungszeitraum ... ?
Vom - - bis: - -   Zeitraum: 23.06.2020 - 27.06.2020
Min/Max/Avg-Anzeige ... ?
Zeige MMA aktuell
Zeige MMA Monat
Zeige MMA alles
Zeige --A aktuell
Zeige --A Monat
Zeige --A alles
Keine MMA-Anzeige
MMA:
Minimum Maximum Average (ber die Originaldaten)
MMA-Basis: 23.06.2020 - 27.06.2020
Quicknavigation für Darstellung... ?
Tage:      1T, 2T, 3T, 5T -1T -2T -3T -5T +1T +2T +3T +5T
Wochen: 1W, 2W, 3W -1W -2W -3W +1W +2W +3W
Monate: 1M, 3M, 6M -1M -3M -6M +1M +3M +6M
Jahre:    1J, 3J, 5J, 10J -1J -3J -5J -10J +1J +3J +5J +10J
Nutze für die Darstellung ... ?
Originaldaten oder Mittelwerte auf ...
Stundenbasis Tagesbasis Wochenbasis
Monatsbasis Jahresbasis      Datenbasis: Original-Daten
Darstellen als:
Statistik (Auto) Statistik J:M      Darstellung:
Zur Graphik,    zurück zur Übersicht aller Sensoren.
 
Tabellarische Datenbersicht: ?
 
Sensor: Nr:Datum:Temp:Abs-Feuchte:Windchill:Wind:
Aussen-T/F 1 23-06-2020 00:00:00 14.4 C 10.26 g/m*3 14.4 C 0 km/h
2 23-06-2020 00:05:00 14.3 C 10.2 g/m*3 14.3 C 0 km/h
3 23-06-2020 00:10:00 14.2 C 10.14 g/m*3 14.2 C 0 km/h
4 23-06-2020 00:15:00 14.1 C 10.07 g/m*3 14.1 C 0 km/h
5 23-06-2020 00:20:00 14 C 10.13 g/m*3 14 C 0 km/h
6 23-06-2020 00:25:00 13.9 C 10.07 g/m*3 13.9 C 0 km/h
7 23-06-2020 00:30:00 13.8 C 10.01 g/m*3 13.8 C 0 km/h
8 23-06-2020 00:35:00 13.6 C 10 g/m*3 13.6 C 0 km/h
9 23-06-2020 00:40:00 13.5 C 9.94 g/m*3 13.5 C 0 km/h
10 23-06-2020 00:45:00 13.4 C 10 g/m*3 13.4 C 0 km/h
11 23-06-2020 00:50:00 13.3 C 9.94 g/m*3 13.3 C 0 km/h
12 23-06-2020 00:55:00 13.2 C 9.87 g/m*3 13.2 C 0 km/h
13 23-06-2020 01:00:00 13.2 C 9.99 g/m*3 13.2 C 0 km/h
14 23-06-2020 01:05:00 13.1 C 9.93 g/m*3 13.1 C 0 km/h
15 23-06-2020 01:10:00 13 C 9.87 g/m*3 13 C 0 km/h
16 23-06-2020 01:15:00 13 C 9.87 g/m*3 13 C 0 km/h
17 23-06-2020 01:20:00 12.9 C 9.92 g/m*3 12.9 C 0 km/h
18 23-06-2020 01:25:00 12.8 C 9.86 g/m*3 12.8 C 0 km/h
19 23-06-2020 01:30:00 12.8 C 9.86 g/m*3 12.8 C 0 km/h
20 23-06-2020 01:35:00 12.7 C 9.8 g/m*3 12.7 C 0 km/h
21 23-06-2020 01:40:00 12.7 C 9.8 g/m*3 12.7 C 0 km/h
22 23-06-2020 01:45:00 12.6 C 9.74 g/m*3 12.6 C 0 km/h
23 23-06-2020 01:50:00 12.6 C 9.74 g/m*3 12.6 C 0 km/h
24 23-06-2020 01:55:00 12.5 C 9.78 g/m*3 12.5 C 0 km/h
25 23-06-2020 02:00:00 12.4 C 9.72 g/m*3 12.4 C 0 km/h
Sensor: Nr:Datum:Temp:Abs-Feuchte:Windchill:Wind:
Aussen-T/F 26 23-06-2020 02:05:00 12.4 C 9.72 g/m*3 12.4 C 0 km/h
27 23-06-2020 02:10:00 12.4 C 9.72 g/m*3 12.4 C 0 km/h
28 23-06-2020 02:15:00 12.4 C 9.72 g/m*3 12.4 C 0 km/h
29 23-06-2020 02:20:00 12.4 C 9.72 g/m*3 12.4 C 0 km/h
30 23-06-2020 02:25:00 12.3 C 9.77 g/m*3 12.3 C 0 km/h
31 23-06-2020 02:30:00 12.3 C 9.77 g/m*3 12.3 C 0 km/h
32 23-06-2020 02:35:00 12.3 C 9.77 g/m*3 12.3 C 0 km/h
33 23-06-2020 02:40:00 12.2 C 9.71 g/m*3 12.2 C 0 km/h
34 23-06-2020 02:45:00 12.2 C 9.71 g/m*3 12.2 C 0 km/h
35 23-06-2020 02:50:00 12.1 C 9.65 g/m*3 12.1 C 0 km/h
36 23-06-2020 02:55:00 12.1 C 9.65 g/m*3 12.1 C 0 km/h
37 23-06-2020 03:00:00 12 C 9.59 g/m*3 12 C 0 km/h
38 23-06-2020 03:05:00 11.9 C 9.53 g/m*3 11.9 C 0 km/h
39 23-06-2020 03:10:00 11.9 C 9.64 g/m*3 11.9 C 0 km/h
40 23-06-2020 03:15:00 11.9 C 9.64 g/m*3 11.9 C 0 km/h
41 23-06-2020 03:20:00 11.9 C 9.64 g/m*3 11.9 C 1.6 km/h
42 23-06-2020 03:25:00 11.9 C 9.64 g/m*3 11.9 C 0 km/h
43 23-06-2020 03:30:00 12 C 9.7 g/m*3 12 C 0 km/h
44 23-06-2020 03:35:00 11.9 C 9.64 g/m*3 11.9 C 0 km/h
45 23-06-2020 03:40:00 11.9 C 9.64 g/m*3 11.9 C 0 km/h
46 23-06-2020 03:45:00 11.8 C 9.58 g/m*3 11.8 C 0 km/h
47 23-06-2020 03:50:00 11.7 C 9.52 g/m*3 11.7 C 0 km/h
48 23-06-2020 03:55:00 11.7 C 9.52 g/m*3 11.7 C 0 km/h
49 23-06-2020 04:00:00 11.6 C 9.46 g/m*3 11.6 C 0 km/h
50 23-06-2020 04:05:00 11.5 C 9.4 g/m*3 11.5 C 0 km/h
Sensor: Nr:Datum:Temp:Abs-Feuchte:Windchill:Wind:
Aussen-T/F 51 23-06-2020 04:10:00 11.4 C 9.34 g/m*3 11.4 C 0 km/h
52 23-06-2020 04:15:00 11.4 C 9.44 g/m*3 11.4 C 0 km/h
53 23-06-2020 04:20:00 11.3 C 9.38 g/m*3 11.3 C 0 km/h
54 23-06-2020 04:25:00 11.3 C 9.38 g/m*3 11.3 C 0 km/h
55 23-06-2020 04:30:00 11.2 C 9.33 g/m*3 11.2 C 0 km/h
56 23-06-2020 04:35:00 11.2 C 9.33 g/m*3 11.2 C 0 km/h
57 23-06-2020 04:40:00 11.2 C 9.33 g/m*3 11.2 C 0 km/h
58 23-06-2020 04:45:00 11.1 C 9.27 g/m*3 11.1 C 0 km/h
59 23-06-2020 04:50:00 11.1 C 9.37 g/m*3 11.1 C 0 km/h
60 23-06-2020 04:55:00 11.1 C 9.37 g/m*3 11.1 C 0 km/h
61 23-06-2020 05:00:00 11 C 9.31 g/m*3 11 C 0 km/h
62 23-06-2020 05:05:00 10.9 C 9.25 g/m*3 10.9 C 0 km/h
63 23-06-2020 05:10:00 10.9 C 9.25 g/m*3 10.9 C 0 km/h
64 23-06-2020 05:15:00 10.9 C 9.25 g/m*3 10.9 C 0 km/h
65 23-06-2020 05:20:00 10.8 C 9.19 g/m*3 10.8 C 0 km/h
66 23-06-2020 05:25:00 10.8 C 9.19 g/m*3 10.8 C 0 km/h
67 23-06-2020 05:30:00 10.8 C 9.19 g/m*3 10.8 C 0 km/h
68 23-06-2020 05:35:00 10.8 C 9.19 g/m*3 10.8 C 0 km/h
69 23-06-2020 05:40:00 10.7 C 9.13 g/m*3 10.7 C 0 km/h
70 23-06-2020 05:45:00 10.7 C 9.13 g/m*3 10.7 C 0 km/h
71 23-06-2020 05:50:00 10.7 C 9.23 g/m*3 10.7 C 0 km/h
72 23-06-2020 05:55:00 10.8 C 9.29 g/m*3 10.8 C 0 km/h
73 23-06-2020 06:00:00 10.8 C 9.29 g/m*3 10.8 C 0 km/h
74 23-06-2020 06:05:00 10.8 C 9.29 g/m*3 10.8 C 0 km/h
75 23-06-2020 06:10:00 10.9 C 9.35 g/m*3 10.9 C 0 km/h
Sensor: Nr:Datum:Temp:Abs-Feuchte:Windchill:Wind:
Aussen-T/F 76 23-06-2020 06:15:00 10.9 C 9.35 g/m*3 10.9 C 0 km/h
77 23-06-2020 06:20:00 10.9 C 9.35 g/m*3 10.9 C 0 km/h
78 23-06-2020 06:25:00 10.9 C 9.35 g/m*3 10.9 C 0 km/h
79 23-06-2020 06:30:00 10.9 C 9.35 g/m*3 10.9 C 0 km/h
80 23-06-2020 06:35:00 10.9 C 9.35 g/m*3 10.9 C 0 km/h
81 23-06-2020 06:40:00 11 C 9.41 g/m*3 11 C 0 km/h
82 23-06-2020 06:45:00 11.1 C 9.57 g/m*3 11.1 C 0 km/h
83 23-06-2020 06:50:00 11.1 C 9.57 g/m*3 11.1 C 0 km/h
84 23-06-2020 06:55:00 11.1 C 9.57 g/m*3 11.1 C 0 km/h
85 23-06-2020 07:00:00 11.2 C 9.63 g/m*3 11.2 C 0 km/h
86 23-06-2020 07:05:00 11.2 C 9.63 g/m*3 11.2 C 0 km/h
87 23-06-2020 07:10:00 11.3 C 9.69 g/m*3 11.3 C 0 km/h
88 23-06-2020 07:15:00 11.3 C 9.69 g/m*3 11.3 C 0 km/h
89 23-06-2020 07:20:00 11.4 C 9.75 g/m*3 11.4 C 0 km/h
90 23-06-2020 07:25:00 11.5 C 9.81 g/m*3 11.5 C 0 km/h
91 23-06-2020 07:30:00 11.6 C 9.87 g/m*3 11.6 C 0 km/h
92 23-06-2020 07:35:00 11.7 C 9.94 g/m*3 11.7 C 0 km/h
93 23-06-2020 07:40:00 11.7 C 9.94 g/m*3 11.7 C 0 km/h
94 23-06-2020 07:45:00 11.8 C 10 g/m*3 11.8 C 0 km/h
95 23-06-2020 07:50:00 11.9 C 10.06 g/m*3 11.9 C 0 km/h
96 23-06-2020 07:55:00 12 C 10.12 g/m*3 12 C 0 km/h
97 23-06-2020 08:00:00 12.1 C 10.19 g/m*3 12.1 C 0 km/h
98 23-06-2020 08:05:00 12.2 C 10.25 g/m*3 12.2 C 0 km/h
99 23-06-2020 08:10:00 12.3 C 10.32 g/m*3 12.3 C 0 km/h
100 23-06-2020 08:15:00 12.4 C 10.38 g/m*3 12.4 C 0 km/h
Sensor: Nr:Datum:Temp:Abs-Feuchte:Windchill:Wind:
Aussen-T/F 101 23-06-2020 08:20:00 12.6 C 10.51 g/m*3 12.6 C 0 km/h
102 23-06-2020 08:25:00 12.7 C 10.58 g/m*3 12.7 C 0 km/h
103 23-06-2020 08:30:00 12.8 C 10.64 g/m*3 12.8 C 0 km/h
104 23-06-2020 08:35:00 12.9 C 10.71 g/m*3 12.9 C 0 km/h
105 23-06-2020 08:40:00 13.1 C 10.84 g/m*3 13.1 C 0 km/h
106 23-06-2020 08:45:00 13.2 C 10.91 g/m*3 13.2 C 0 km/h
107 23-06-2020 08:50:00 13.3 C 10.98 g/m*3 13.3 C 0 km/h
108 23-06-2020 08:55:00 13.4 C 11.04 g/m*3 13.4 C 0 km/h
109 23-06-2020 09:00:00 13.6 C 11.18 g/m*3 13.6 C 0 km/h
110 23-06-2020 09:05:00 13.7 C 11.25 g/m*3 13.7 C 0 km/h
111 23-06-2020 09:10:00 13.9 C 11.39 g/m*3 13.9 C 0 km/h
112 23-06-2020 09:15:00 14.1 C 11.53 g/m*3 14.1 C 0 km/h
113 23-06-2020 09:20:00 14.2 C 11.6 g/m*3 14.2 C 0 km/h
114 23-06-2020 09:25:00 14.4 C 11.62 g/m*3 14.4 C 0 km/h
115 23-06-2020 09:30:00 14.6 C 11.76 g/m*3 14.6 C 0 km/h
116 23-06-2020 09:35:00 14.8 C 11.78 g/m*3 14.8 C 0 km/h
117 23-06-2020 09:40:00 15 C 11.93 g/m*3 15 C 0 km/h
118 23-06-2020 09:45:00 15.2 C 12.07 g/m*3 15.2 C 0 km/h
119 23-06-2020 09:50:00 15.4 C 12.09 g/m*3 15.4 C 0 km/h
120 23-06-2020 09:55:00 15.7 C 12.18 g/m*3 15.7 C 0 km/h
121 23-06-2020 10:00:00 16 C 12.4 g/m*3 16 C 0 km/h
122 23-06-2020 10:05:00 16.3 C 12.49 g/m*3 16.3 C 0 km/h
123 23-06-2020 10:10:00 16.6 C 12.43 g/m*3 16.6 C 0 km/h
124 23-06-2020 10:15:00 17.1 C 12.66 g/m*3 17.1 C 0 km/h
125 23-06-2020 10:20:00 17.6 C 13.05 g/m*3 17.6 C 0 km/h
Sensor: Nr:Datum:Temp:Abs-Feuchte:Windchill:Wind:
Aussen-T/F 126 23-06-2020 10:25:00 18.3 C 13.13 g/m*3 18.3 C 3.2 km/h
127 23-06-2020 10:30:00 18.9 C 12.96 g/m*3 18.9 C 3.2 km/h
128 23-06-2020 10:35:00 19.5 C 12.75 g/m*3 19.5 C 3.2 km/h
129 23-06-2020 10:40:00 20.2 C 13.11 g/m*3 20.2 C 3.2 km/h
130 23-06-2020 10:45:00 20.6 C 12.89 g/m*3 20.6 C 1.6 km/h
131 23-06-2020 10:50:00 21.1 C 13.08 g/m*3 21.1 C 3.2 km/h
132 23-06-2020 10:55:00 21.4 C 12.37 g/m*3 21.4 C 3.2 km/h
133 23-06-2020 11:00:00 21.7 C 12.4 g/m*3 21.7 C 6.4 km/h
134 23-06-2020 11:05:00 22 C 12.23 g/m*3 22 C 3.2 km/h
135 23-06-2020 11:10:00 22.2 C 11.98 g/m*3 22.2 C 4.8 km/h
136 23-06-2020 11:15:00 22.5 C 12.38 g/m*3 22.5 C 6.4 km/h
137 23-06-2020 11:20:00 22.6 C 11.85 g/m*3 22.6 C 4.8 km/h
138 23-06-2020 11:25:00 22.6 C 12.05 g/m*3 22.6 C 4.8 km/h
139 23-06-2020 11:30:00 22.7 C 11.72 g/m*3 22.7 C 6.4 km/h
140 23-06-2020 11:35:00 22.8 C 11.58 g/m*3 22.8 C 0 km/h
141 23-06-2020 11:40:00 22.9 C 11.44 g/m*3 22.9 C 0 km/h
142 23-06-2020 11:45:00 23 C 11.3 g/m*3 23 C 9.7 km/h
143 23-06-2020 11:50:00 23.1 C 11.37 g/m*3 23.1 C 6.4 km/h
144 23-06-2020 11:55:00 23.1 C 11.37 g/m*3 23.1 C 6.4 km/h
145 23-06-2020 12:00:00 23.1 C 11.37 g/m*3 23.1 C 11.3 km/h
146 23-06-2020 12:05:00 23.1 C 11.16 g/m*3 23.1 C 11.3 km/h
147 23-06-2020 12:10:00 23.1 C 11.37 g/m*3 23.1 C 3.2 km/h
148 23-06-2020 12:15:00 23.1 C 11.16 g/m*3 23.1 C 3.2 km/h
149 23-06-2020 12:20:00 23.2 C 11.02 g/m*3 23.2 C 6.4 km/h
150 23-06-2020 12:25:00 23.3 C 11.08 g/m*3 23.3 C 4.8 km/h
Sensor: Nr:Datum:Temp:Abs-Feuchte:Windchill:Wind:
Aussen-T/F 151 23-06-2020 12:30:00 23.4 C 11.14 g/m*3 23.4 C 14.5 km/h
152 23-06-2020 12:35:00 23.6 C 11.06 g/m*3 23.6 C 14.5 km/h
153 23-06-2020 12:40:00 23.7 C 10.91 g/m*3 23.7 C 11.3 km/h
154 23-06-2020 12:45:00 23.7 C 10.91 g/m*3 23.7 C 6.4 km/h
155 23-06-2020 12:50:00 23.7 C 11.55 g/m*3 23.7 C 0 km/h
156 23-06-2020 12:55:00 23.7 C 10.91 g/m*3 23.7 C 1.6 km/h
157 23-06-2020 13:00:00 23.9 C 10.82 g/m*3 23.9 C 8.1 km/h
158 23-06-2020 13:05:00 24.2 C 10.78 g/m*3 24.2 C 14.5 km/h
159 23-06-2020 13:10:00 24.3 C 10.62 g/m*3 24.3 C 9.7 km/h
160 23-06-2020 13:15:00 24.3 C 10.62 g/m*3 24.3 C 8.1 km/h
161 23-06-2020 13:20:00 24.3 C 10.4 g/m*3 24.3 C 6.4 km/h
162 23-06-2020 13:25:00 24.3 C 10.62 g/m*3 24.3 C 8.1 km/h
163 23-06-2020 13:30:00 24.4 C 10.68 g/m*3 24.4 C 9.7 km/h
164 23-06-2020 13:35:00 24.4 C 10.46 g/m*3 24.4 C 9.7 km/h
165 23-06-2020 13:40:00 24.5 C 10.52 g/m*3 24.5 C 11.3 km/h
166 23-06-2020 13:45:00 24.6 C 10.35 g/m*3 24.6 C 8.1 km/h
167 23-06-2020 13:50:00 24.9 C 10.53 g/m*3 24.9 C 9.7 km/h
168 23-06-2020 13:55:00 25.2 C 10.24 g/m*3 25.2 C 12.9 km/h
169 23-06-2020 14:00:00 25.3 C 10.07 g/m*3 25.3 C 9.7 km/h
170 23-06-2020 14:05:00 25.3 C 10.07 g/m*3 25.3 C 9.7 km/h
171 23-06-2020 14:10:00 25.3 C 10.07 g/m*3 25.3 C 14.5 km/h
172 23-06-2020 14:15:00 25.3 C 10.3 g/m*3 25.3 C 12.9 km/h
173 23-06-2020 14:20:00 25.3 C 10.07 g/m*3 25.3 C 11.3 km/h
174 23-06-2020 14:25:00 25.3 C 10.07 g/m*3 25.3 C 8.1 km/h
175 23-06-2020 14:30:00 25.3 C 10.07 g/m*3 25.3 C 9.7 km/h
Sensor: Nr:Datum:Temp:Abs-Feuchte:Windchill:Wind:
Aussen-T/F 176 23-06-2020 14:35:00 25.3 C 10.07 g/m*3 25.3 C 8.1 km/h
177 23-06-2020 14:40:00 25.5 C 10.18 g/m*3 25.5 C 11.3 km/h
178 23-06-2020 14:45:00 25.7 C 9.82 g/m*3 25.7 C 9.7 km/h
179 23-06-2020 14:50:00 26.1 C 10.28 g/m*3 26.1 C 9.7 km/h
180 23-06-2020 14:55:00 26.2 C 10.34 g/m*3 26.2 C 12.9 km/h
181 23-06-2020 15:00:00 26.2 C 10.59 g/m*3 26.2 C 12.9 km/h
182 23-06-2020 15:05:00 26.3 C 10.64 g/m*3 26.3 C 11.3 km/h
183 23-06-2020 15:10:00 26.4 C 10.95 g/m*3 26.4 C 8.1 km/h
184 23-06-2020 15:15:00 26.6 C 10.57 g/m*3 26.6 C 6.4 km/h
185 23-06-2020 15:20:00 26.7 C 10.63 g/m*3 26.7 C 3.2 km/h
186 23-06-2020 15:25:00 26.8 C 10.94 g/m*3 26.8 C 8.1 km/h
187 23-06-2020 15:30:00 27.2 C 10.67 g/m*3 27.2 C 12.9 km/h
188 23-06-2020 15:35:00 27.4 C 10.52 g/m*3 27.4 C 12.9 km/h
189 23-06-2020 15:40:00 27.7 C 10.97 g/m*3 27.7 C 11.3 km/h
190 23-06-2020 15:45:00 27.8 C 10.49 g/m*3 27.8 C 9.7 km/h
191 23-06-2020 15:50:00 27.8 C 10.22 g/m*3 27.8 C 12.9 km/h
192 23-06-2020 15:55:00 27.8 C 10.49 g/m*3 27.8 C 8.1 km/h
193 23-06-2020 16:00:00 28.1 C 10.39 g/m*3 28.1 C 9.7 km/h
194 23-06-2020 16:05:00 28.4 C 10.84 g/m*3 28.4 C 11.3 km/h
195 23-06-2020 16:10:00 28.4 C 10.56 g/m*3 28.4 C 9.7 km/h
196 23-06-2020 16:15:00 28.4 C 10.28 g/m*3 28.4 C 9.7 km/h
197 23-06-2020 16:20:00 28.3 C 10.51 g/m*3 28.3 C 12.9 km/h
198 23-06-2020 16:25:00 28 C 10.61 g/m*3 28 C 12.9 km/h
199 23-06-2020 16:30:00 28.3 C 10.78 g/m*3 28.3 C 9.7 km/h
200 23-06-2020 16:35:00 28.4 C 10.84 g/m*3 28.4 C 8.1 km/h
Sensor: Nr:Datum:Temp:Abs-Feuchte:Windchill:Wind:
Aussen-T/F 201 23-06-2020 16:40:00 28.3 C 10.51 g/m*3 28.3 C 8.1 km/h
202 23-06-2020 16:45:00 28.3 C 10.78 g/m*3 28.3 C 8.1 km/h
203 23-06-2020 16:50:00 28.3 C 11.06 g/m*3 28.3 C 12.9 km/h
204 23-06-2020 16:55:00 28.3 C 11.33 g/m*3 28.3 C 11.3 km/h
205 23-06-2020 17:00:00 28.7 C 11.3 g/m*3 28.7 C 11.3 km/h
206 23-06-2020 17:05:00 28.9 C 10.86 g/m*3 28.9 C 8.1 km/h
207 23-06-2020 17:10:00 29.1 C 11.26 g/m*3 29.1 C 3.2 km/h
208 23-06-2020 17:15:00 29.3 C 11.68 g/m*3 29.3 C 9.7 km/h
209 23-06-2020 17:20:00 29.6 C 12.17 g/m*3 29.6 C 6.4 km/h
210 23-06-2020 17:25:00 29.8 C 11.4 g/m*3 29.8 C 6.4 km/h
211 23-06-2020 17:30:00 29.5 C 11.51 g/m*3 29.5 C 4.8 km/h
212 23-06-2020 17:35:00 29.6 C 11.28 g/m*3 29.6 C 9.7 km/h
213 23-06-2020 17:40:00 29.4 C 11.45 g/m*3 29.4 C 6.4 km/h
214 23-06-2020 17:45:00 29.4 C 11.74 g/m*3 29.4 C 6.4 km/h
215 23-06-2020 17:50:00 29.5 C 11.51 g/m*3 29.5 C 6.4 km/h
216 23-06-2020 17:55:00 29.5 C 11.51 g/m*3 29.5 C 6.4 km/h
217 23-06-2020 18:00:00 29.6 C 11.28 g/m*3 29.6 C 6.4 km/h
218 23-06-2020 18:05:00 29.6 C 11.57 g/m*3 29.6 C 8.1 km/h
219 23-06-2020 18:10:00 29.5 C 11.81 g/m*3 29.5 C 8.1 km/h
220 23-06-2020 18:15:00 29.6 C 11.57 g/m*3 29.6 C 9.7 km/h
221 23-06-2020 18:20:00 29.4 C 11.45 g/m*3 29.4 C 8.1 km/h
222 23-06-2020 18:25:00 29.4 C 11.74 g/m*3 29.4 C 9.7 km/h
223 23-06-2020 18:30:00 29.3 C 11.68 g/m*3 29.3 C 9.7 km/h
224 23-06-2020 18:35:00 29.1 C 11.55 g/m*3 29.1 C 9.7 km/h
225 23-06-2020 18:40:00 28.8 C 11.65 g/m*3 28.8 C 11.3 km/h
Sensor: Nr:Datum:Temp:Abs-Feuchte:Windchill:Wind:
Aussen-T/F 226 23-06-2020 18:45:00 28.7 C 11.3 g/m*3 28.7 C 9.7 km/h
227 23-06-2020 18:50:00 28.7 C 11.59 g/m*3 28.7 C 11.3 km/h
228 23-06-2020 18:55:00 28.7 C 11.59 g/m*3 28.7 C 8.1 km/h
229 23-06-2020 19:00:00 28.8 C 11.65 g/m*3 28.8 C 6.4 km/h
230 23-06-2020 19:05:00 28.9 C 11.43 g/m*3 28.9 C 11.3 km/h
231 23-06-2020 19:10:00 28.8 C 11.36 g/m*3 28.8 C 6.4 km/h
232 23-06-2020 19:15:00 28.8 C 11.93 g/m*3 28.8 C 9.7 km/h
233 23-06-2020 19:20:00 28.7 C 11.87 g/m*3 28.7 C 9.7 km/h
234 23-06-2020 19:25:00 28.7 C 11.87 g/m*3 28.7 C 8.1 km/h
235 23-06-2020 19:30:00 28.6 C 12.08 g/m*3 28.6 C 6.4 km/h
236 23-06-2020 19:35:00 28.3 C 11.33 g/m*3 28.3 C 9.7 km/h
237 23-06-2020 19:40:00 28 C 11.69 g/m*3 28 C 8.1 km/h
238 23-06-2020 19:45:00 28 C 11.69 g/m*3 28 C 8.1 km/h
239 23-06-2020 19:50:00 28 C 11.69 g/m*3 28 C 8.1 km/h
240 23-06-2020 19:55:00 27.9 C 11.63 g/m*3 27.9 C 8.1 km/h
241 23-06-2020 20:00:00 27.9 C 11.9 g/m*3 27.9 C 6.4 km/h
242 23-06-2020 20:05:00 27.7 C 11.77 g/m*3 27.7 C 11.3 km/h
243 23-06-2020 20:10:00 27.7 C 11.77 g/m*3 27.7 C 8.1 km/h
244 23-06-2020 20:15:00 27.6 C 11.71 g/m*3 27.6 C 6.4 km/h
245 23-06-2020 20:20:00 27.4 C 11.84 g/m*3 27.4 C 6.4 km/h
246 23-06-2020 20:25:00 27.4 C 12.1 g/m*3 27.4 C 1.6 km/h
247 23-06-2020 20:30:00 27.4 C 12.37 g/m*3 27.4 C 4.8 km/h
248 23-06-2020 20:35:00 27.4 C 13.94 g/m*3 27.4 C 3.2 km/h
249 23-06-2020 20:40:00 27.4 C 13.94 g/m*3 27.4 C 0 km/h
250 23-06-2020 20:45:00 27.3 C 13.87 g/m*3 27.3 C 3.2 km/h
Sensor: Nr:Datum:Temp:Abs-Feuchte:Windchill:Wind:
Aussen-T/F 251 23-06-2020 20:50:00 27.1 C 13.72 g/m*3 27.1 C 3.2 km/h
252 23-06-2020 20:55:00 26.8 C 13.74 g/m*3 26.8 C 1.6 km/h
253 23-06-2020 21:00:00 26.4 C 13.69 g/m*3 26.4 C 3.2 km/h
254 23-06-2020 21:05:00 25.9 C 13.8 g/m*3 25.9 C 3.2 km/h
255 23-06-2020 21:10:00 25.5 C 13.49 g/m*3 25.5 C 4.8 km/h
256 23-06-2020 21:15:00 25 C 13.35 g/m*3 25 C 3.2 km/h
257 23-06-2020 21:20:00 24.5 C 13.2 g/m*3 24.5 C 4.8 km/h
258 23-06-2020 21:25:00 23.9 C 13.2 g/m*3 23.9 C 6.4 km/h
259 23-06-2020 21:30:00 23.5 C 13.11 g/m*3 23.5 C 3.2 km/h
260 23-06-2020 21:35:00 23.1 C 13.23 g/m*3 23.1 C 1.6 km/h
261 23-06-2020 21:40:00 22.7 C 12.93 g/m*3 22.7 C 3.2 km/h
262 23-06-2020 21:45:00 22.3 C 13.03 g/m*3 22.3 C 1.6 km/h
263 23-06-2020 21:50:00 22 C 12.62 g/m*3 22 C 4.8 km/h
264 23-06-2020 21:55:00 21.7 C 12.4 g/m*3 21.7 C 4.8 km/h
265 23-06-2020 22:00:00 21.4 C 12.19 g/m*3 21.4 C 6.4 km/h
266 23-06-2020 22:05:00 21.2 C 12.05 g/m*3 21.2 C 6.4 km/h
267 23-06-2020 22:10:00 21.1 C 12.16 g/m*3 21.1 C 8.1 km/h
268 23-06-2020 22:15:00 20.9 C 12.02 g/m*3 20.9 C 6.4 km/h
269 23-06-2020 22:20:00 20.7 C 12.06 g/m*3 20.7 C 6.4 km/h
270 23-06-2020 22:25:00 20.6 C 11.81 g/m*3 20.6 C 4.8 km/h
271 23-06-2020 22:30:00 20.4 C 11.68 g/m*3 20.4 C 6.4 km/h
272 23-06-2020 22:35:00 20.3 C 11.61 g/m*3 20.3 C 6.4 km/h
273 23-06-2020 22:40:00 20.2 C 12.06 g/m*3 20.2 C 4.8 km/h
274 23-06-2020 22:45:00 20.1 C 11.82 g/m*3 20.1 C 6.4 km/h
275 23-06-2020 22:50:00 19.9 C 11.68 g/m*3 19.9 C 6.4 km/h
Sensor: Nr:Datum:Temp:Abs-Feuchte:Windchill:Wind:
Aussen-T/F 276 23-06-2020 22:55:00 19.8 C 11.79 g/m*3 19.8 C 6.4 km/h
277 23-06-2020 23:00:00 19.7 C 12.06 g/m*3 19.7 C 3.2 km/h
278 23-06-2020 23:05:00 19.5 C 11.92 g/m*3 19.5 C 4.8 km/h
279 23-06-2020 23:10:00 19.3 C 11.94 g/m*3 19.3 C 4.8 km/h
280 23-06-2020 23:15:00 19.2 C 11.87 g/m*3 19.2 C 3.2 km/h
281 23-06-2020 23:20:00 19 C 11.9 g/m*3 19 C 4.8 km/h
282 23-06-2020 23:25:00 18.9 C 11.83 g/m*3 18.9 C 3.2 km/h
283 23-06-2020 23:30:00 18.7 C 11.85 g/m*3 18.7 C 4.8 km/h
284 23-06-2020 23:35:00 18.6 C 11.78 g/m*3 18.6 C 3.2 km/h
285 23-06-2020 23:40:00 18.4 C 11.64 g/m*3 18.4 C 1.6 km/h
286 23-06-2020 23:45:00 18.3 C 11.57 g/m*3 18.3 C 0 km/h
287 23-06-2020 23:50:00 18.2 C 11.66 g/m*3 18.2 C 0 km/h
288 23-06-2020 23:55:00 18.2 C 11.81 g/m*3 18.2 C 3.2 km/h
289 24-06-2020 00:00:00 18.1 C 11.59 g/m*3 18.1 C 4.8 km/h
290 24-06-2020 00:05:00 17.9 C 11.6 g/m*3 17.9 C 1.6 km/h
291 24-06-2020 00:10:00 17.8 C 11.54 g/m*3 17.8 C 3.2 km/h
292 24-06-2020 00:15:00 17.8 C 11.54 g/m*3 17.8 C 1.6 km/h
293 24-06-2020 00:20:00 17.7 C 11.62 g/m*3 17.7 C 3.2 km/h
294 24-06-2020 00:25:00 17.7 C 11.62 g/m*3 17.7 C 3.2 km/h
295 24-06-2020 00:30:00 17.7 C 11.62 g/m*3 17.7 C 1.6 km/h
296 24-06-2020 00:35:00 17.6 C 11.55 g/m*3 17.6 C 1.6 km/h
297 24-06-2020 00:40:00 17.5 C 11.48 g/m*3 17.5 C 3.2 km/h
298 24-06-2020 00:45:00 17.4 C 11.26 g/m*3 17.4 C 4.8 km/h
299 24-06-2020 00:50:00 17.4 C 11.41 g/m*3 17.4 C 3.2 km/h
300 24-06-2020 00:55:00 17.4 C 11.41 g/m*3 17.4 C 1.6 km/h
Sensor: Nr:Datum:Temp:Abs-Feuchte:Windchill:Wind:
Aussen-T/F 301 24-06-2020 01:00:00 17.3 C 11.34 g/m*3 17.3 C 1.6 km/h
302 24-06-2020 01:05:00 17.3 C 11.34 g/m*3 17.3 C 0 km/h
303 24-06-2020 01:10:00 17.2 C 11.42 g/m*3 17.2 C 3.2 km/h
304 24-06-2020 01:15:00 17.2 C 11.42 g/m*3 17.2 C 4.8 km/h
305 24-06-2020 01:20:00 17.1 C 11.21 g/m*3 17.1 C 1.6 km/h
306 24-06-2020 01:25:00 17 C 11.14 g/m*3 17 C 4.8 km/h
307 24-06-2020 01:30:00 16.9 C 10.93 g/m*3 16.9 C 3.2 km/h
308 24-06-2020 01:35:00 16.9 C 10.93 g/m*3 16.9 C 4.8 km/h
309 24-06-2020 01:40:00 16.9 C 10.93 g/m*3 16.9 C 3.2 km/h
310 24-06-2020 01:45:00 16.9 C 11.08 g/m*3 16.9 C 0 km/h
311 24-06-2020 01:50:00 16.9 C 11.22 g/m*3 16.9 C 0 km/h
312 24-06-2020 01:55:00 16.8 C 11.01 g/m*3 16.8 C 3.2 km/h
313 24-06-2020 02:00:00 16.7 C 10.94 g/m*3 16.7 C 3.2 km/h
314 24-06-2020 02:05:00 16.7 C 10.94 g/m*3 16.7 C 0 km/h
315 24-06-2020 02:10:00 16.6 C 11.02 g/m*3 16.6 C 0 km/h
316 24-06-2020 02:15:00 16.4 C 10.89 g/m*3 16.4 C 0 km/h
317 24-06-2020 02:20:00 16.3 C 10.96 g/m*3 16.3 C 1.6 km/h
318 24-06-2020 02:25:00 16.1 C 10.83 g/m*3 16.1 C 0 km/h
319 24-06-2020 02:30:00 15.9 C 10.83 g/m*3 15.9 C 0 km/h
320 24-06-2020 02:35:00 15.8 C 10.77 g/m*3 15.8 C 0 km/h
321 24-06-2020 02:40:00 15.7 C 10.84 g/m*3 15.7 C 0 km/h
322 24-06-2020 02:45:00 15.6 C 10.91 g/m*3 15.6 C 0 km/h
323 24-06-2020 02:50:00 15.4 C 10.77 g/m*3 15.4 C 0 km/h
324 24-06-2020 02:55:00 15.3 C 10.84 g/m*3 15.3 C 0 km/h
325 24-06-2020 03:00:00 15.2 C 10.77 g/m*3 15.2 C 0 km/h
Sensor: Nr:Datum:Temp:Abs-Feuchte:Windchill:Wind:
Aussen-T/F 326 24-06-2020 03:05:00 15.1 C 10.71 g/m*3 15.1 C 0 km/h
327 24-06-2020 03:10:00 14.9 C 10.58 g/m*3 14.9 C 0 km/h
328 24-06-2020 03:15:00 14.8 C 10.64 g/m*3 14.8 C 0 km/h
329 24-06-2020 03:20:00 14.8 C 10.64 g/m*3 14.8 C 0 km/h
330 24-06-2020 03:25:00 14.7 C 10.58 g/m*3 14.7 C 0 km/h
331 24-06-2020 03:30:00 14.6 C 10.51 g/m*3 14.6 C 0 km/h
332 24-06-2020 03:35:00 14.4 C 10.51 g/m*3 14.4 C 0 km/h
333 24-06-2020 03:40:00 14.4 C 10.63 g/m*3 14.4 C 0 km/h
334 24-06-2020 03:45:00 14.3 C 10.57 g/m*3 14.3 C 0 km/h
335 24-06-2020 03:50:00 14.3 C 10.69 g/m*3 14.3 C 0 km/h
336 24-06-2020 03:55:00 14.2 C 10.62 g/m*3 14.2 C 0 km/h
337 24-06-2020 04:00:00 14.2 C 10.62 g/m*3 14.2 C 0 km/h
338 24-06-2020 04:05:00 14.1 C 10.56 g/m*3 14.1 C 0 km/h
339 24-06-2020 04:10:00 13.9 C 10.43 g/m*3 13.9 C 0 km/h
340 24-06-2020 04:15:00 13.8 C 10.37 g/m*3 13.8 C 0 km/h
341 24-06-2020 04:20:00 13.7 C 10.3 g/m*3 13.7 C 0 km/h
342 24-06-2020 04:25:00 13.6 C 10.36 g/m*3 13.6 C 0 km/h
343 24-06-2020 04:30:00 13.5 C 10.29 g/m*3 13.5 C 0 km/h
344 24-06-2020 04:35:00 13.4 C 10.23 g/m*3 13.4 C 0 km/h
345 24-06-2020 04:40:00 13.3 C 10.17 g/m*3 13.3 C 0 km/h
346 24-06-2020 04:45:00 13.3 C 10.17 g/m*3 13.3 C 0 km/h
347 24-06-2020 04:50:00 13.2 C 10.1 g/m*3 13.2 C 0 km/h
348 24-06-2020 04:55:00 13.2 C 10.22 g/m*3 13.2 C 0 km/h
349 24-06-2020 05:00:00 13.1 C 10.16 g/m*3 13.1 C 0 km/h
350 24-06-2020 05:05:00 13.1 C 10.16 g/m*3 13.1 C 0 km/h
Sensor: Nr:Datum:Temp:Abs-Feuchte:Windchill:Wind:
Aussen-T/F 351 24-06-2020 05:10:00 13 C 10.09 g/m*3 13 C 0 km/h
352 24-06-2020 05:15:00 12.9 C 10.03 g/m*3 12.9 C 0 km/h
353 24-06-2020 05:20:00 12.9 C 10.03 g/m*3 12.9 C 0 km/h
354 24-06-2020 05:25:00 12.9 C 10.14 g/m*3 12.9 C 0 km/h
355 24-06-2020 05:30:00 12.9 C 10.14 g/m*3 12.9 C 0 km/h
356 24-06-2020 05:35:00 12.8 C 10.08 g/m*3 12.8 C 0 km/h
357 24-06-2020 05:40:00 12.8 C 10.08 g/m*3 12.8 C 0 km/h
358 24-06-2020 05:45:00 12.8 C 10.08 g/m*3 12.8 C 0 km/h
359 24-06-2020 05:50:00 12.8 C 10.08 g/m*3 12.8 C 0 km/h
360 24-06-2020 05:55:00 12.8 C 10.19 g/m*3 12.8 C 0 km/h
361 24-06-2020 06:00:00 12.8 C 10.19 g/m*3 12.8 C 0 km/h
362 24-06-2020 06:05:00 12.8 C 10.19 g/m*3 12.8 C 0 km/h
363 24-06-2020 06:10:00 12.7 C 10.13 g/m*3 12.7 C 0 km/h
364 24-06-2020 06:15:00 12.7 C 10.13 g/m*3 12.7 C 0 km/h
365 24-06-2020 06:20:00 12.7 C 10.13 g/m*3 12.7 C 0 km/h
366 24-06-2020 06:25:00 12.7 C 10.24 g/m*3 12.7 C 0 km/h
367 24-06-2020 06:30:00 12.8 C 10.3 g/m*3 12.8 C 0 km/h
368 24-06-2020 06:35:00 12.8 C 10.3 g/m*3 12.8 C 0 km/h
369 24-06-2020 06:40:00 12.8 C 10.3 g/m*3 12.8 C 0 km/h
370 24-06-2020 06:45:00 12.8 C 10.3 g/m*3 12.8 C 0 km/h
371 24-06-2020 06:50:00 12.9 C 10.37 g/m*3 12.9 C 0 km/h
372 24-06-2020 06:55:00 12.9 C 10.37 g/m*3 12.9 C 0 km/h
373 24-06-2020 07:00:00 13 C 10.43 g/m*3 13 C 0 km/h
374 24-06-2020 07:05:00 13.1 C 10.5 g/m*3 13.1 C 0 km/h
375 24-06-2020 07:10:00 13.1 C 10.5 g/m*3 13.1 C 0 km/h
Sensor: Nr:Datum:Temp:Abs-Feuchte:Windchill:Wind:
Aussen-T/F 376 24-06-2020 07:15:00 13.2 C 10.68 g/m*3 13.2 C 0 km/h
377 24-06-2020 07:20:00 13.2 C 10.68 g/m*3 13.2 C 0 km/h
378 24-06-2020 07:25:00 13.3 C 10.74 g/m*3 13.3 C 0 km/h
379 24-06-2020 07:30:00 13.3 C 10.74 g/m*3 13.3 C 0 km/h
380 24-06-2020 07:35:00 13.4 C 10.81 g/m*3 13.4 C 0 km/h
381 24-06-2020 07:40:00 13.6 C 10.95 g/m*3 13.6 C 0 km/h
382 24-06-2020 07:45:00 13.7 C 11.01 g/m*3 13.7 C 0 km/h
383 24-06-2020 07:50:00 13.8 C 11.08 g/m*3 13.8 C 0 km/h
384 24-06-2020 07:55:00 13.8 C 11.08 g/m*3 13.8 C 0 km/h
385 24-06-2020 08:00:00 13.9 C 11.15 g/m*3 13.9 C 0 km/h
386 24-06-2020 08:05:00 14 C 11.22 g/m*3 14 C 0 km/h
387 24-06-2020 08:10:00 14.1 C 11.17 g/m*3 14.1 C 0 km/h
388 24-06-2020 08:15:00 14.2 C 11.23 g/m*3 14.2 C 0 km/h
389 24-06-2020 08:20:00 14.3 C 11.3 g/m*3 14.3 C 0 km/h
390 24-06-2020 08:25:00 14.5 C 11.44 g/m*3 14.5 C 0 km/h
391 24-06-2020 08:30:00 14.6 C 11.51 g/m*3 14.6 C 0 km/h
392 24-06-2020 08:35:00 14.8 C 11.65 g/m*3 14.8 C 0 km/h
393 24-06-2020 08:40:00 14.9 C 11.73 g/m*3 14.9 C 0 km/h
394 24-06-2020 08:45:00 15.1 C 11.74 g/m*3 15.1 C 0 km/h
395 24-06-2020 08:50:00 15.3 C 11.88 g/m*3 15.3 C 0 km/h
396 24-06-2020 08:55:00 15.4 C 11.96 g/m*3 15.4 C 0 km/h
397 24-06-2020 09:00:00 15.6 C 12.1 g/m*3 15.6 C 0 km/h
398 24-06-2020 09:05:00 15.8 C 12.11 g/m*3 15.8 C 0 km/h
399 24-06-2020 09:10:00 16.1 C 12.2 g/m*3 16.1 C 1.6 km/h
400 24-06-2020 09:15:00 16.3 C 12.21 g/m*3 16.3 C 1.6 km/h
Sensor: Nr:Datum:Temp:Abs-Feuchte:Windchill:Wind:
Aussen-T/F 401 24-06-2020 09:20:00 16.6 C 12.15 g/m*3 16.6 C 3.2 km/h
402 24-06-2020 09:25:00 16.9 C 11.94 g/m*3 16.9 C 4.8 km/h
403 24-06-2020 09:30:00 17.3 C 12.08 g/m*3 17.3 C 1.6 km/h
404 24-06-2020 09:35:00 17.6 C 12.3 g/m*3 17.6 C 0 km/h
405 24-06-2020 09:40:00 17.9 C 12.52 g/m*3 17.9 C 0 km/h
406 24-06-2020 09:45:00 18.2 C 12.12 g/m*3 18.2 C 6.4 km/h
407 24-06-2020 09:50:00 18.6 C 11.78 g/m*3 18.6 C 4.8 km/h
408 24-06-2020 09:55:00 18.9 C 12.31 g/m*3 18.9 C 0 km/h
409 24-06-2020 10:00:00 19.1 C 12.29 g/m*3 19.1 C 1.6 km/h
410 24-06-2020 10:05:00 19.6 C 11.14 g/m*3 19.6 C 4.8 km/h
411 24-06-2020 10:10:00 20.2 C 12.24 g/m*3 20.2 C 1.6 km/h
412 24-06-2020 10:15:00 20.6 C 11.63 g/m*3 20.6 C 1.6 km/h
413 24-06-2020 10:20:00 21.1 C 12.16 g/m*3 21.1 C 6.4 km/h
414 24-06-2020 10:25:00 21.7 C 12.02 g/m*3 21.7 C 1.6 km/h
415 24-06-2020 10:30:00 22.4 C 11.12 g/m*3 22.4 C 11.3 km/h
416 24-06-2020 10:35:00 23.1 C 12.2 g/m*3 23.1 C 8.1 km/h
417 24-06-2020 10:40:00 23.4 C 10.72 g/m*3 23.4 C 11.3 km/h
418 24-06-2020 10:45:00 23.7 C 11.34 g/m*3 23.7 C 8.1 km/h
419 24-06-2020 10:50:00 23.8 C 11.62 g/m*3 23.8 C 4.8 km/h
420 24-06-2020 10:55:00 24.1 C 10.28 g/m*3 24.1 C 14.5 km/h
421 24-06-2020 11:00:00 24.2 C 10.56 g/m*3 24.2 C 12.9 km/h
422 24-06-2020 11:05:00 24.3 C 11.06 g/m*3 24.3 C 14.5 km/h
423 24-06-2020 11:10:00 24.4 C 10.24 g/m*3 24.4 C 16.1 km/h
424 24-06-2020 11:15:00 24.6 C 11.25 g/m*3 24.6 C 14.5 km/h
425 24-06-2020 11:20:00 24.7 C 10.86 g/m*3 24.7 C 6.4 km/h
Sensor: Nr:Datum:Temp:Abs-Feuchte:Windchill:Wind:
Aussen-T/F 426 24-06-2020 11:25:00 24.8 C 10.02 g/m*3 24.8 C 14.5 km/h
427 24-06-2020 11:30:00 24.9 C 10.07 g/m*3 24.9 C 12.9 km/h
428 24-06-2020 11:35:00 24.9 C 10.53 g/m*3 24.9 C 11.3 km/h
429 24-06-2020 11:40:00 24.9 C 10.07 g/m*3 24.9 C 11.3 km/h
430 24-06-2020 11:45:00 25 C 10.36 g/m*3 25 C 14.5 km/h
431 24-06-2020 11:50:00 25.1 C 10.19 g/m*3 25.1 C 11.3 km/h
432 24-06-2020 11:55:00 25.1 C 10.19 g/m*3 25.1 C 16.1 km/h
433 24-06-2020 12:00:00 25.1 C 10.19 g/m*3 25.1 C 20.9 km/h
434 24-06-2020 12:05:00 25.1 C 10.42 g/m*3 25.1 C 12.9 km/h
435 24-06-2020 12:10:00 25.1 C 10.19 g/m*3 25.1 C 14.5 km/h
436 24-06-2020 12:15:00 25.2 C 10.48 g/m*3 25.2 C 11.3 km/h
437 24-06-2020 12:20:00 25.3 C 10.07 g/m*3 25.3 C 17.7 km/h
438 24-06-2020 12:25:00 25.6 C 10.71 g/m*3 25.6 C 12.9 km/h
439 24-06-2020 12:30:00 25.6 C 10 g/m*3 25.6 C 9.7 km/h
440 24-06-2020 12:35:00 25.5 C 9.94 g/m*3 25.5 C 24.1 km/h
441 24-06-2020 12:40:00 25.6 C 10 g/m*3 25.6 C 24.1 km/h
442 24-06-2020 12:45:00 25.6 C 9.76 g/m*3 25.6 C 12.9 km/h
443 24-06-2020 12:50:00 25.7 C 10.29 g/m*3 25.7 C 9.7 km/h
444 24-06-2020 12:55:00 25.9 C 10.41 g/m*3 25.9 C 9.7 km/h
445 24-06-2020 13:00:00 25.9 C 10.17 g/m*3 25.9 C 9.7 km/h
446 24-06-2020 13:05:00 26 C 10.47 g/m*3 26 C 12.9 km/h
447 24-06-2020 13:10:00 26.1 C 10.28 g/m*3 26.1 C 17.7 km/h
448 24-06-2020 13:15:00 26.1 C 10.04 g/m*3 26.1 C 14.5 km/h
449 24-06-2020 13:20:00 26.2 C 9.6 g/m*3 26.2 C 17.7 km/h
450 24-06-2020 13:25:00 26.3 C 9.65 g/m*3 26.3 C 17.7 km/h
Sensor: Nr:Datum:Temp:Abs-Feuchte:Windchill:Wind:
Aussen-T/F 451 24-06-2020 13:30:00 26.3 C 9.65 g/m*3 26.3 C 14.5 km/h
452 24-06-2020 13:35:00 26.4 C 9.46 g/m*3 26.4 C 16.1 km/h
453 24-06-2020 13:40:00 26.6 C 9.57 g/m*3 26.6 C 19.3 km/h
454 24-06-2020 13:45:00 26.5 C 9.76 g/m*3 26.5 C 16.1 km/h
455 24-06-2020 13:50:00 26.6 C 9.82 g/m*3 26.6 C 20.9 km/h
456 24-06-2020 13:55:00 26.6 C 9.57 g/m*3 26.6 C 17.7 km/h
457 24-06-2020 14:00:00 26.7 C 9.62 g/m*3 26.7 C 16.1 km/h
458 24-06-2020 14:05:00 26.8 C 9.16 g/m*3 26.8 C 19.3 km/h
459 24-06-2020 14:10:00 26.8 C 9.67 g/m*3 26.8 C 16.1 km/h
460 24-06-2020 14:15:00 26.8 C 9.42 g/m*3 26.8 C 14.5 km/h
461 24-06-2020 14:20:00 26.8 C 9.67 g/m*3 26.8 C 14.5 km/h
462 24-06-2020 14:25:00 26.9 C 9.73 g/m*3 26.9 C 12.9 km/h
463 24-06-2020 14:30:00 27 C 10.04 g/m*3 27 C 14.5 km/h
464 24-06-2020 14:35:00 27.1 C 9.83 g/m*3 27.1 C 12.9 km/h
465 24-06-2020 14:40:00 27.3 C 9.94 g/m*3 27.3 C 16.1 km/h
466 24-06-2020 14:45:00 27.4 C 10 g/m*3 27.4 C 16.1 km/h
467 24-06-2020 14:50:00 27.5 C 9.79 g/m*3 27.5 C 14.5 km/h
468 24-06-2020 14:55:00 27.5 C 9.52 g/m*3 27.5 C 20.9 km/h
469 24-06-2020 15:00:00 27.4 C 9.47 g/m*3 27.4 C 17.7 km/h
470 24-06-2020 15:05:00 27.6 C 9.04 g/m*3 27.6 C 14.5 km/h
471 24-06-2020 15:10:00 27.6 C 9.31 g/m*3 27.6 C 11.3 km/h
472 24-06-2020 15:15:00 27.7 C 9.09 g/m*3 27.7 C 16.1 km/h
473 24-06-2020 15:20:00 27.8 C 8.88 g/m*3 27.8 C 17.7 km/h
474 24-06-2020 15:25:00 27.8 C 8.88 g/m*3 27.8 C 14.5 km/h
475 24-06-2020 15:30:00 27.8 C 9.15 g/m*3 27.8 C 29 km/h
Sensor: Nr:Datum:Temp:Abs-Feuchte:Windchill:Wind:
Aussen-T/F 476 24-06-2020 15:35:00 27.8 C 9.15 g/m*3 27.8 C 17.7 km/h
477 24-06-2020 15:40:00 28 C 9.79 g/m*3 28 C 14.5 km/h
478 24-06-2020 15:45:00 28.3 C 9.4 g/m*3 28.3 C 16.1 km/h
479 24-06-2020 15:50:00 28.2 C 9.07 g/m*3 28.2 C 20.9 km/h
480 24-06-2020 15:55:00 28.2 C 9.35 g/m*3 28.2 C 20.9 km/h
481 24-06-2020 16:00:00 28.4 C 8.62 g/m*3 28.4 C 20.9 km/h
482 24-06-2020 16:05:00 28.3 C 8.02 g/m*3 28.3 C 19.3 km/h
483 24-06-2020 16:10:00 28.2 C 7.97 g/m*3 28.2 C 24.1 km/h
484 24-06-2020 16:15:00 28.2 C 8.52 g/m*3 28.2 C 17.7 km/h
485 24-06-2020 16:20:00 28.4 C 8.34 g/m*3 28.4 C 19.3 km/h
486 24-06-2020 16:25:00 28.4 C 8.34 g/m*3 28.4 C 17.7 km/h
487 24-06-2020 16:30:00 28.8 C 8.24 g/m*3 28.8 C 8.1 km/h
488 24-06-2020 16:35:00 29.3 C 8.47 g/m*3 29.3 C 17.7 km/h
489 24-06-2020 16:40:00 29.1 C 8.09 g/m*3 29.1 C 17.7 km/h
490 24-06-2020 16:45:00 29.2 C 8.42 g/m*3 29.2 C 12.9 km/h
491 24-06-2020 16:50:00 29.1 C 8.09 g/m*3 29.1 C 19.3 km/h
492 24-06-2020 16:55:00 28.8 C 8.24 g/m*3 28.8 C 20.9 km/h
493 24-06-2020 17:00:00 28.7 C 8.48 g/m*3 28.7 C 14.5 km/h
494 24-06-2020 17:05:00 28.9 C 8 g/m*3 28.9 C 19.3 km/h
495 24-06-2020 17:10:00 28.6 C 7.87 g/m*3 28.6 C 19.3 km/h
496 24-06-2020 17:15:00 28.8 C 8.24 g/m*3 28.8 C 12.9 km/h
497 24-06-2020 17:20:00 28.9 C 7.71 g/m*3 28.9 C 14.5 km/h
498 24-06-2020 17:25:00 29 C 7.76 g/m*3 29 C 12.9 km/h
499 24-06-2020 17:30:00 28.9 C 7.71 g/m*3 28.9 C 12.9 km/h
500 24-06-2020 17:35:00 28.9 C 7.71 g/m*3 28.9 C 19.3 km/h
Sensor: Nr:Datum:Temp:Abs-Feuchte:Windchill:Wind:
Aussen-T/F 501 24-06-2020 17:40:00 28.8 C 7.67 g/m*3 28.8 C 11.3 km/h
502 24-06-2020 17:45:00 28.8 C 7.67 g/m*3 28.8 C 14.5 km/h
503 24-06-2020 17:50:00 28.9 C 7.43 g/m*3 28.9 C 14.5 km/h
504 24-06-2020 17:55:00 28.8 C 7.39 g/m*3 28.8 C 17.7 km/h
505 24-06-2020 18:00:00 28.7 C 7.35 g/m*3 28.7 C 20.9 km/h
506 24-06-2020 18:05:00 28.7 C 7.35 g/m*3 28.7 C 14.5 km/h
507 24-06-2020 18:10:00 28.6 C 7.03 g/m*3 28.6 C 14.5 km/h
508 24-06-2020 18:15:00 28.8 C 7.39 g/m*3 28.8 C 9.7 km/h
509 24-06-2020 18:20:00 28.9 C 7.43 g/m*3 28.9 C 16.1 km/h
510 24-06-2020 18:25:00 28.7 C 7.63 g/m*3 28.7 C 17.7 km/h
511 24-06-2020 18:30:00 28.8 C 7.39 g/m*3 28.8 C 16.1 km/h
512 24-06-2020 18:35:00 28.8 C 7.1 g/m*3 28.8 C 12.9 km/h
513 24-06-2020 18:40:00 28.8 C 7.1 g/m*3 28.8 C 14.5 km/h
514 24-06-2020 18:45:00 28.8 C 7.67 g/m*3 28.8 C 14.5 km/h
515 24-06-2020 18:50:00 29.1 C 7.22 g/m*3 29.1 C 8.1 km/h
516 24-06-2020 18:55:00 29.1 C 7.8 g/m*3 29.1 C 14.5 km/h
517 24-06-2020 19:00:00 28.9 C 7.14 g/m*3 28.9 C 19.3 km/h
518 24-06-2020 19:05:00 28.5 C 7.55 g/m*3 28.5 C 17.7 km/h
519 24-06-2020 19:10:00 28.4 C 7.78 g/m*3 28.4 C 12.9 km/h
520 24-06-2020 19:15:00 28.4 C 7.78 g/m*3 28.4 C 14.5 km/h
521 24-06-2020 19:20:00 28.2 C 7.42 g/m*3 28.2 C 9.7 km/h
522 24-06-2020 19:25:00 28 C 8.7 g/m*3 28 C 12.9 km/h
523 24-06-2020 19:30:00 27.5 C 7.94 g/m*3 27.5 C 14.5 km/h
524 24-06-2020 19:35:00 27.2 C 8.07 g/m*3 27.2 C 14.5 km/h
525 24-06-2020 19:40:00 27.1 C 8.28 g/m*3 27.1 C 16.1 km/h
Sensor: Nr:Datum:Temp:Abs-Feuchte:Windchill:Wind:
Aussen-T/F 526 24-06-2020 19:45:00 27.2 C 8.59 g/m*3 27.2 C 12.9 km/h
527 24-06-2020 19:50:00 27.2 C 8.85 g/m*3 27.2 C 14.5 km/h
528 24-06-2020 19:55:00 27.3 C 8.63 g/m*3 27.3 C 8.1 km/h
529 24-06-2020 20:00:00 27.3 C 8.63 g/m*3 27.3 C 8.1 km/h
530 24-06-2020 20:05:00 27.3 C 8.9 g/m*3 27.3 C 8.1 km/h
531 24-06-2020 20:10:00 27.3 C 9.16 g/m*3 27.3 C 8.1 km/h
532 24-06-2020 20:15:00 27.3 C 9.16 g/m*3 27.3 C 8.1 km/h
533 24-06-2020 20:20:00 27.3 C 9.16 g/m*3 27.3 C 9.7 km/h
534 24-06-2020 20:25:00 27.2 C 9.11 g/m*3 27.2 C 8.1 km/h
535 24-06-2020 20:30:00 27.1 C 9.06 g/m*3 27.1 C 9.7 km/h
536 24-06-2020 20:35:00 27.1 C 9.58 g/m*3 27.1 C 4.8 km/h
537 24-06-2020 20:40:00 27.1 C 9.58 g/m*3 27.1 C 3.2 km/h
538 24-06-2020 20:45:00 27.2 C 10.15 g/m*3 27.2 C 3.2 km/h
539 24-06-2020 20:50:00 27.2 C 10.67 g/m*3 27.2 C 3.2 km/h
540 24-06-2020 20:55:00 27.1 C 11.13 g/m*3 27.1 C 1.6 km/h
541 24-06-2020 21:00:00 26.9 C 11.77 g/m*3 26.9 C 4.8 km/h
542 24-06-2020 21:05:00 26.5 C 11.51 g/m*3 26.5 C 1.6 km/h
543 24-06-2020 21:10:00 26.1 C 11.51 g/m*3 26.1 C 3.2 km/h
544 24-06-2020 21:15:00 25.6 C 11.43 g/m*3 25.6 C 4.8 km/h
545 24-06-2020 21:20:00 24.9 C 11.45 g/m*3 24.9 C 1.6 km/h
546 24-06-2020 21:25:00 24.4 C 11.57 g/m*3 24.4 C 3.2 km/h
547 24-06-2020 21:30:00 23.9 C 11.25 g/m*3 23.9 C 3.2 km/h
548 24-06-2020 21:35:00 23.4 C 11.14 g/m*3 23.4 C 6.4 km/h
549 24-06-2020 21:40:00 22.9 C 11.04 g/m*3 22.9 C 3.2 km/h
550 24-06-2020 21:45:00 22.5 C 10.79 g/m*3 22.5 C 4.8 km/h
Sensor: Nr:Datum:Temp:Abs-Feuchte:Windchill:Wind:
Aussen-T/F 551 24-06-2020 21:50:00 22.2 C 10.99 g/m*3 22.2 C 3.2 km/h
552 24-06-2020 21:55:00 21.8 C 11.13 g/m*3 21.8 C 4.8 km/h
553 24-06-2020 22:00:00 21.6 C 11.19 g/m*3 21.6 C 4.8 km/h
554 24-06-2020 22:05:00 21.3 C 11.37 g/m*3 21.3 C 0 km/h
555 24-06-2020 22:10:00 21.2 C 11.3 g/m*3 21.2 C 0 km/h
556 24-06-2020 22:15:00 21 C 11.36 g/m*3 21 C 0 km/h
557 24-06-2020 22:20:00 20.9 C 11.11 g/m*3 20.9 C 9.7 km/h
558 24-06-2020 22:25:00 20.8 C 11.23 g/m*3 20.8 C 1.6 km/h
559 24-06-2020 22:30:00 20.8 C 11.41 g/m*3 20.8 C 3.2 km/h
560 24-06-2020 22:35:00 20.8 C 11.59 g/m*3 20.8 C 4.8 km/h
561 24-06-2020 22:40:00 20.7 C 11.52 g/m*3 20.7 C 0 km/h
562 24-06-2020 22:45:00 20.6 C 11.63 g/m*3 20.6 C 0 km/h
563 24-06-2020 22:50:00 20.4 C 11.32 g/m*3 20.4 C 3.2 km/h
564 24-06-2020 22:55:00 20.3 C 11.61 g/m*3 20.3 C 1.6 km/h
565 24-06-2020 23:00:00 20.2 C 11.37 g/m*3 20.2 C 0 km/h
566 24-06-2020 23:05:00 20.1 C 11.3 g/m*3 20.1 C 0 km/h
567 24-06-2020 23:10:00 20 C 11.23 g/m*3 20 C 0 km/h
568 24-06-2020 23:15:00 19.8 C 11.27 g/m*3 19.8 C 0 km/h
569 24-06-2020 23:20:00 19.8 C 11.27 g/m*3 19.8 C 4.8 km/h
570 24-06-2020 23:25:00 19.9 C 11.17 g/m*3 19.9 C 3.2 km/h
571 24-06-2020 23:30:00 19.9 C 11.17 g/m*3 19.9 C 1.6 km/h
572 24-06-2020 23:35:00 19.8 C 11.27 g/m*3 19.8 C 1.6 km/h
573 24-06-2020 23:40:00 19.6 C 11.14 g/m*3 19.6 C 0 km/h
574 24-06-2020 23:45:00 19.4 C 11.18 g/m*3 19.4 C 0 km/h
575 24-06-2020 23:50:00 19.3 C 11.11 g/m*3 19.3 C 6.4 km/h
Sensor: Nr:Datum:Temp:Abs-Feuchte:Windchill:Wind:
Aussen-T/F 576 24-06-2020 23:55:00 19.3 C 11.11 g/m*3 19.3 C 3.2 km/h
577 25-06-2020 00:00:00 19.2 C 11.05 g/m*3 19.2 C 3.2 km/h
578 25-06-2020 00:05:00 19.1 C 11.15 g/m*3 19.1 C 4.8 km/h
579 25-06-2020 00:10:00 19 C 10.76 g/m*3 19 C 3.2 km/h
580 25-06-2020 00:15:00 18.9 C 11.18 g/m*3 18.9 C 1.6 km/h
581 25-06-2020 00:20:00 18.8 C 11.11 g/m*3 18.8 C 3.2 km/h
582 25-06-2020 00:25:00 18.7 C 11.05 g/m*3 18.7 C 0 km/h
583 25-06-2020 00:30:00 18.6 C 10.98 g/m*3 18.6 C 1.6 km/h
584 25-06-2020 00:35:00 18.5 C 11.08 g/m*3 18.5 C 3.2 km/h
585 25-06-2020 00:40:00 18.4 C 11.01 g/m*3 18.4 C 0 km/h
586 25-06-2020 00:45:00 18.3 C 11.1 g/m*3 18.3 C 0 km/h
587 25-06-2020 00:50:00 18.2 C 10.88 g/m*3 18.2 C 3.2 km/h
588 25-06-2020 00:55:00 18.3 C 11.1 g/m*3 18.3 C 1.6 km/h
589 25-06-2020 01:00:00 18.3 C 10.94 g/m*3 18.3 C 1.6 km/h
590 25-06-2020 01:05:00 18.3 C 11.1 g/m*3 18.3 C 0 km/h
591 25-06-2020 01:10:00 18.4 C 11.01 g/m*3 18.4 C 4.8 km/h
592 25-06-2020 01:15:00 18.4 C 11.01 g/m*3 18.4 C 3.2 km/h
593 25-06-2020 01:20:00 18.4 C 11.01 g/m*3 18.4 C 0 km/h
594 25-06-2020 01:25:00 18.3 C 10.94 g/m*3 18.3 C 1.6 km/h
595 25-06-2020 01:30:00 18.3 C 11.1 g/m*3 18.3 C 0 km/h
596 25-06-2020 01:35:00 18.1 C 10.97 g/m*3 18.1 C 1.6 km/h
597 25-06-2020 01:40:00 18.1 C 10.97 g/m*3 18.1 C 3.2 km/h
598 25-06-2020 01:45:00 18 C 11.06 g/m*3 18 C 1.6 km/h
599 25-06-2020 01:50:00 18 C 11.06 g/m*3 18 C 0 km/h
600 25-06-2020 01:55:00 17.9 C 10.99 g/m*3 17.9 C 1.6 km/h
Sensor: Nr:Datum:Temp:Abs-Feuchte:Windchill:Wind:
Aussen-T/F 601 25-06-2020 02:00:00 17.9 C 10.99 g/m*3 17.9 C 1.6 km/h
602 25-06-2020 02:05:00 17.7 C 11.01 g/m*3 17.7 C 0 km/h
603 25-06-2020 02:10:00 17.6 C 10.95 g/m*3 17.6 C 0 km/h
604 25-06-2020 02:15:00 17.4 C 10.97 g/m*3 17.4 C 0 km/h
605 25-06-2020 02:20:00 17.3 C 10.9 g/m*3 17.3 C 0 km/h
606 25-06-2020 02:25:00 17.2 C 10.84 g/m*3 17.2 C 0 km/h
607 25-06-2020 02:30:00 17 C 10.85 g/m*3 17 C 0 km/h
608 25-06-2020 02:35:00 16.8 C 10.87 g/m*3 16.8 C 0 km/h
609 25-06-2020 02:40:00 16.7 C 10.8 g/m*3 16.7 C 0 km/h
610 25-06-2020 02:45:00 16.6 C 10.88 g/m*3 16.6 C 0 km/h
611 25-06-2020 02:50:00 16.5 C 10.81 g/m*3 16.5 C 0 km/h
612 25-06-2020 02:55:00 16.4 C 10.89 g/m*3 16.4 C 0 km/h
613 25-06-2020 03:00:00 16.3 C 10.82 g/m*3 16.3 C 0 km/h
614 25-06-2020 03:05:00 16.2 C 10.76 g/m*3 16.2 C 0 km/h
615 25-06-2020 03:10:00 16.1 C 10.83 g/m*3 16.1 C 0 km/h
616 25-06-2020 03:15:00 16.1 C 10.83 g/m*3 16.1 C 0 km/h
617 25-06-2020 03:20:00 15.9 C 10.7 g/m*3 15.9 C 4.8 km/h
618 25-06-2020 03:25:00 15.9 C 10.83 g/m*3 15.9 C 1.6 km/h
619 25-06-2020 03:30:00 15.8 C 10.77 g/m*3 15.8 C 3.2 km/h
620 25-06-2020 03:35:00 15.8 C 10.77 g/m*3 15.8 C 4.8 km/h
621 25-06-2020 03:40:00 15.8 C 10.77 g/m*3 15.8 C 3.2 km/h
622 25-06-2020 03:45:00 15.8 C 10.9 g/m*3 15.8 C 3.2 km/h
623 25-06-2020 03:50:00 15.7 C 10.84 g/m*3 15.7 C 0 km/h
624 25-06-2020 03:55:00 15.7 C 10.84 g/m*3 15.7 C 0 km/h
625 25-06-2020 04:00:00 15.6 C 10.77 g/m*3 15.6 C 0 km/h
Sensor: Nr:Datum:Temp:Abs-Feuchte:Windchill:Wind:
Aussen-T/F 626 25-06-2020 04:05:00 15.5 C 10.84 g/m*3 15.5 C 1.6 km/h
627 25-06-2020 04:10:00 15.4 C 10.77 g/m*3 15.4 C 1.6 km/h
628 25-06-2020 04:15:00 15.4 C 10.77 g/m*3 15.4 C 1.6 km/h
629 25-06-2020 04:20:00 15.3 C 10.71 g/m*3 15.3 C 3.2 km/h
630 25-06-2020 04:25:00 15.3 C 10.84 g/m*3 15.3 C 1.6 km/h
631 25-06-2020 04:30:00 15.2 C 10.77 g/m*3 15.2 C 1.6 km/h
632 25-06-2020 04:35:00 15.1 C 10.71 g/m*3 15.1 C 1.6 km/h
633 25-06-2020 04:40:00 15 C 10.77 g/m*3 15 C 1.6 km/h
634 25-06-2020 04:45:00 14.9 C 10.71 g/m*3 14.9 C 0 km/h
635 25-06-2020 04:50:00 14.9 C 10.71 g/m*3 14.9 C 1.6 km/h
636 25-06-2020 04:55:00 14.8 C 10.77 g/m*3 14.8 C 1.6 km/h
637 25-06-2020 05:00:00 14.8 C 10.77 g/m*3 14.8 C 4.8 km/h
638 25-06-2020 05:05:00 14.7 C 10.7 g/m*3 14.7 C 3.2 km/h
639 25-06-2020 05:10:00 14.7 C 10.7 g/m*3 14.7 C 3.2 km/h
640 25-06-2020 05:15:00 14.7 C 10.83 g/m*3 14.7 C 1.6 km/h
641 25-06-2020 05:20:00 14.6 C 10.76 g/m*3 14.6 C 0 km/h
642 25-06-2020 05:25:00 14.6 C 10.76 g/m*3 14.6 C 0 km/h
643 25-06-2020 05:30:00 14.6 C 10.89 g/m*3 14.6 C 0 km/h
644 25-06-2020 05:35:00 14.6 C 10.89 g/m*3 14.6 C 0 km/h
645 25-06-2020 05:40:00 14.5 C 10.82 g/m*3 14.5 C 0 km/h
646 25-06-2020 05:45:00 14.5 C 10.82 g/m*3 14.5 C 0 km/h
647 25-06-2020 05:50:00 14.5 C 10.82 g/m*3 14.5 C 1.6 km/h
648 25-06-2020 05:55:00 14.5 C 10.94 g/m*3 14.5 C 1.6 km/h
649 25-06-2020 06:00:00 14.5 C 10.94 g/m*3 14.5 C 0 km/h
650 25-06-2020 06:05:00 14.5 C 10.94 g/m*3 14.5 C 3.2 km/h
Sensor: Nr:Datum:Temp:Abs-Feuchte:Windchill:Wind:
Aussen-T/F 651 25-06-2020 06:10:00 14.5 C 10.94 g/m*3 14.5 C 1.6 km/h
652 25-06-2020 06:15:00 14.6 C 11.01 g/m*3 14.6 C 3.2 km/h
653 25-06-2020 06:20:00 14.6 C 11.01 g/m*3 14.6 C 3.2 km/h
654 25-06-2020 06:25:00 14.6 C 11.01 g/m*3 14.6 C 4.8 km/h
655 25-06-2020 06:30:00 14.7 C 11.08 g/m*3 14.7 C 3.2 km/h
656 25-06-2020 06:35:00 14.7 C 11.21 g/m*3 14.7 C 3.2 km/h
657 25-06-2020 06:40:00 14.7 C 11.21 g/m*3 14.7 C 1.6 km/h
658 25-06-2020 06:45:00 14.8 C 11.27 g/m*3 14.8 C 1.6 km/h
659 25-06-2020 06:50:00 14.9 C 11.34 g/m*3 14.9 C 3.2 km/h
660 25-06-2020 06:55:00 15 C 11.41 g/m*3 15 C 1.6 km/h
661 25-06-2020 07:00:00 15.2 C 11.42 g/m*3 15.2 C 6.4 km/h
662 25-06-2020 07:05:00 15.3 C 11.49 g/m*3 15.3 C 1.6 km/h
663 25-06-2020 07:10:00 15.6 C 11.7 g/m*3 15.6 C 0 km/h
664 25-06-2020 07:15:00 15.8 C 11.71 g/m*3 15.8 C 3.2 km/h
665 25-06-2020 07:20:00 15.9 C 11.78 g/m*3 15.9 C 3.2 km/h
666 25-06-2020 07:25:00 16 C 11.72 g/m*3 16 C 0 km/h
667 25-06-2020 07:30:00 16.1 C 11.79 g/m*3 16.1 C 3.2 km/h
668 25-06-2020 07:35:00 16.1 C 11.79 g/m*3 16.1 C 0 km/h
669 25-06-2020 07:40:00 16.1 C 11.79 g/m*3 16.1 C 1.6 km/h
670 25-06-2020 07:45:00 16.2 C 11.86 g/m*3 16.2 C 4.8 km/h
671 25-06-2020 07:50:00 16.2 C 11.86 g/m*3 16.2 C 0 km/h
672 25-06-2020 07:55:00 16.3 C 11.93 g/m*3 16.3 C 1.6 km/h
673 25-06-2020 08:00:00 16.4 C 11.86 g/m*3 16.4 C 1.6 km/h
674 25-06-2020 08:05:00 16.6 C 12.15 g/m*3 16.6 C 1.6 km/h
675 25-06-2020 08:10:00 16.8 C 12.01 g/m*3 16.8 C 4.8 km/h
Sensor: Nr:Datum:Temp:Abs-Feuchte:Windchill:Wind:
Aussen-T/F 676 25-06-2020 08:15:00 17 C 12.15 g/m*3 17 C 1.6 km/h
677 25-06-2020 08:20:00 17.2 C 12.3 g/m*3 17.2 C 3.2 km/h
678 25-06-2020 08:25:00 17.2 C 12.3 g/m*3 17.2 C 1.6 km/h
679 25-06-2020 08:30:00 17.3 C 12.23 g/m*3 17.3 C 3.2 km/h
680 25-06-2020 08:35:00 17.4 C 12.3 g/m*3 17.4 C 1.6 km/h
681 25-06-2020 08:40:00 17.5 C 12.37 g/m*3 17.5 C 0 km/h
682 25-06-2020 08:45:00 17.7 C 12.52 g/m*3 17.7 C 3.2 km/h
683 25-06-2020 08:50:00 17.9 C 12.52 g/m*3 17.9 C 3.2 km/h
684 25-06-2020 08:55:00 18.1 C 12.36 g/m*3 18.1 C 8.1 km/h
685 25-06-2020 09:00:00 18.3 C 12.66 g/m*3 18.3 C 8.1 km/h
686 25-06-2020 09:05:00 18.6 C 12.89 g/m*3 18.6 C 6.4 km/h
687 25-06-2020 09:10:00 18.8 C 12.56 g/m*3 18.8 C 4.8 km/h
688 25-06-2020 09:15:00 19.1 C 12.29 g/m*3 19.1 C 3.2 km/h
689 25-06-2020 09:20:00 19.6 C 12.32 g/m*3 19.6 C 8.1 km/h
690 25-06-2020 09:25:00 20.2 C 12.59 g/m*3 20.2 C 6.4 km/h
691 25-06-2020 09:30:00 20.5 C 12.28 g/m*3 20.5 C 4.8 km/h
692 25-06-2020 09:35:00 20.9 C 12.57 g/m*3 20.9 C 8.1 km/h
693 25-06-2020 09:40:00 21.2 C 12.42 g/m*3 21.2 C 9.7 km/h
694 25-06-2020 09:45:00 21.4 C 12.37 g/m*3 21.4 C 8.1 km/h
695 25-06-2020 09:50:00 21.7 C 12.4 g/m*3 21.7 C 14.5 km/h
696 25-06-2020 09:55:00 21.8 C 12.28 g/m*3 21.8 C 16.1 km/h
697 25-06-2020 10:00:00 22.1 C 12.69 g/m*3 22.1 C 16.1 km/h
698 25-06-2020 10:05:00 22.2 C 12.57 g/m*3 22.2 C 9.7 km/h
699 25-06-2020 10:10:00 22.4 C 12.31 g/m*3 22.4 C 11.3 km/h
700 25-06-2020 10:15:00 22.7 C 12.53 g/m*3 22.7 C 11.3 km/h
Sensor: Nr:Datum:Temp:Abs-Feuchte:Windchill:Wind:
Aussen-T/F 701 25-06-2020 10:20:00 23.1 C 12.4 g/m*3 23.1 C 16.1 km/h
702 25-06-2020 10:25:00 23.3 C 12.75 g/m*3 23.3 C 9.7 km/h
703 25-06-2020 10:30:00 23.6 C 12.76 g/m*3 23.6 C 11.3 km/h
704 25-06-2020 10:35:00 23.8 C 12.69 g/m*3 23.8 C 11.3 km/h
705 25-06-2020 10:40:00 24.1 C 12.69 g/m*3 24.1 C 8.1 km/h
706 25-06-2020 10:45:00 24.2 C 12.98 g/m*3 24.2 C 9.7 km/h
707 25-06-2020 10:50:00 24.2 C 12.54 g/m*3 24.2 C 9.7 km/h
708 25-06-2020 10:55:00 24.3 C 12.83 g/m*3 24.3 C 9.7 km/h
709 25-06-2020 11:00:00 24.4 C 12.69 g/m*3 24.4 C 12.9 km/h
710 25-06-2020 11:05:00 24.4 C 12.69 g/m*3 24.4 C 12.9 km/h
711 25-06-2020 11:10:00 24.5 C 12.98 g/m*3 24.5 C 8.1 km/h
712 25-06-2020 11:15:00 24.6 C 12.83 g/m*3 24.6 C 17.7 km/h
713 25-06-2020 11:20:00 24.6 C 12.6 g/m*3 24.6 C 14.5 km/h
714 25-06-2020 11:25:00 24.8 C 12.75 g/m*3 24.8 C 12.9 km/h
715 25-06-2020 11:30:00 24.8 C 12.52 g/m*3 24.8 C 17.7 km/h
716 25-06-2020 11:35:00 24.7 C 12.68 g/m*3 24.7 C 17.7 km/h
717 25-06-2020 11:40:00 24.8 C 12.75 g/m*3 24.8 C 16.1 km/h
718 25-06-2020 11:45:00 24.8 C 12.75 g/m*3 24.8 C 11.3 km/h
719 25-06-2020 11:50:00 24.8 C 12.97 g/m*3 24.8 C 9.7 km/h
720 25-06-2020 11:55:00 24.9 C 12.82 g/m*3 24.9 C 11.3 km/h
721 25-06-2020 12:00:00 25 C 12.89 g/m*3 25 C 8.1 km/h
722 25-06-2020 12:05:00 25.1 C 12.73 g/m*3 25.1 C 22.5 km/h
723 25-06-2020 12:10:00 25.2 C 12.8 g/m*3 25.2 C 14.5 km/h
724 25-06-2020 12:15:00 25.3 C 12.64 g/m*3 25.3 C 14.5 km/h
725 25-06-2020 12:20:00 25.3 C 12.64 g/m*3 25.3 C 9.7 km/h
Sensor: Nr:Datum:Temp:Abs-Feuchte:Windchill:Wind:
Aussen-T/F 726 25-06-2020 12:25:00 25.3 C 12.64 g/m*3 25.3 C 16.1 km/h
727 25-06-2020 12:30:00 25.4 C 12.95 g/m*3 25.4 C 4.8 km/h
728 25-06-2020 12:35:00 25.5 C 12.78 g/m*3 25.5 C 14.5 km/h
729 25-06-2020 12:40:00 25.7 C 12.69 g/m*3 25.7 C 16.1 km/h
730 25-06-2020 12:45:00 25.8 C 12.76 g/m*3 25.8 C 11.3 km/h
731 25-06-2020 12:50:00 25.9 C 12.83 g/m*3 25.9 C 14.5 km/h
732 25-06-2020 12:55:00 26 C 12.66 g/m*3 26 C 12.9 km/h
733 25-06-2020 13:00:00 26.1 C 12.73 g/m*3 26.1 C 14.5 km/h
734 25-06-2020 13:05:00 26.2 C 13.05 g/m*3 26.2 C 11.3 km/h
735 25-06-2020 13:10:00 26.3 C 12.63 g/m*3 26.3 C 16.1 km/h
736 25-06-2020 13:15:00 26.3 C 12.87 g/m*3 26.3 C 16.1 km/h
737 25-06-2020 13:20:00 26.4 C 13.19 g/m*3 26.4 C 12.9 km/h
738 25-06-2020 13:25:00 26.7 C 13.42 g/m*3 26.7 C 8.1 km/h
739 25-06-2020 13:30:00 27.1 C 13.2 g/m*3 27.1 C 20.9 km/h
740 25-06-2020 13:35:00 27.2 C 13.27 g/m*3 27.2 C 19.3 km/h
741 25-06-2020 13:40:00 27.1 C 13.2 g/m*3 27.1 C 11.3 km/h
742 25-06-2020 13:45:00 27.1 C 13.2 g/m*3 27.1 C 14.5 km/h
743 25-06-2020 13:50:00 27.3 C 13.08 g/m*3 27.3 C 12.9 km/h
744 25-06-2020 13:55:00 27.3 C 13.61 g/m*3 27.3 C 9.7 km/h
745 25-06-2020 14:00:00 27.4 C 13.68 g/m*3 27.4 C 14.5 km/h
746 25-06-2020 14:05:00 27.4 C 13.42 g/m*3 27.4 C 17.7 km/h
747 25-06-2020 14:10:00 27.3 C 13.08 g/m*3 27.3 C 16.1 km/h
748 25-06-2020 14:15:00 27.3 C 13.08 g/m*3 27.3 C 12.9 km/h
749 25-06-2020 14:20:00 27.4 C 12.89 g/m*3 27.4 C 20.9 km/h
750 25-06-2020 14:25:00 27.3 C 13.34 g/m*3 27.3 C 14.5 km/h
Sensor: Nr:Datum:Temp:Abs-Feuchte:Windchill:Wind:
Aussen-T/F 751 25-06-2020 14:30:00 27 C 13.38 g/m*3 27 C 17.7 km/h
752 25-06-2020 14:35:00 26.8 C 13.24 g/m*3 26.8 C 12.9 km/h
753 25-06-2020 14:40:00 26.8 C 13.74 g/m*3 26.8 C 11.3 km/h
754 25-06-2020 14:45:00 26.7 C 13.42 g/m*3 26.7 C 8.1 km/h
755 25-06-2020 14:50:00 26.6 C 13.34 g/m*3 26.6 C 14.5 km/h
756 25-06-2020 14:55:00 26.6 C 13.84 g/m*3 26.6 C 8.1 km/h
757 25-06-2020 15:00:00 26.5 C 13.52 g/m*3 26.5 C 12.9 km/h
758 25-06-2020 15:05:00 26.5 C 13.77 g/m*3 26.5 C 14.5 km/h
759 25-06-2020 15:10:00 26.6 C 13.84 g/m*3 26.6 C 11.3 km/h
760 25-06-2020 15:15:00 26.7 C 13.92 g/m*3 26.7 C 8.1 km/h
761 25-06-2020 15:20:00 26.8 C 14 g/m*3 26.8 C 8.1 km/h
762 25-06-2020 15:25:00 26.9 C 14.33 g/m*3 26.9 C 8.1 km/h
763 25-06-2020 15:30:00 27.1 C 14.23 g/m*3 27.1 C 8.1 km/h
764 25-06-2020 15:35:00 27 C 14.15 g/m*3 27 C 11.3 km/h
765 25-06-2020 15:40:00 26.8 C 14 g/m*3 26.8 C 9.7 km/h
766 25-06-2020 15:45:00 26.7 C 13.92 g/m*3 26.7 C 9.7 km/h
767 25-06-2020 15:50:00 26.6 C 14.1 g/m*3 26.6 C 6.4 km/h
768 25-06-2020 15:55:00 26.6 C 14.35 g/m*3 26.6 C 6.4 km/h
769 25-06-2020 16:00:00 26.6 C 14.35 g/m*3 26.6 C 8.1 km/h
770 25-06-2020 16:05:00 26.5 C 14.27 g/m*3 26.5 C 8.1 km/h
771 25-06-2020 16:10:00 26.3 C 14.11 g/m*3 26.3 C 8.1 km/h
772 25-06-2020 16:15:00 26.2 C 14.28 g/m*3 26.2 C 8.1 km/h
773 25-06-2020 16:20:00 26.1 C 14.2 g/m*3 26.1 C 8.1 km/h
774 25-06-2020 16:25:00 25.9 C 14.28 g/m*3 25.9 C 3.2 km/h
775 25-06-2020 16:30:00 25.9 C 14.53 g/m*3 25.9 C 4.8 km/h
Sensor: Nr:Datum:Temp:Abs-Feuchte:Windchill:Wind:
Aussen-T/F 776 25-06-2020 16:35:00 25.9 C 14.28 g/m*3 25.9 C 9.7 km/h
777 25-06-2020 16:40:00 26 C 14.61 g/m*3 26 C 11.3 km/h
778 25-06-2020 16:45:00 26.1 C 14.44 g/m*3 26.1 C 8.1 km/h
779 25-06-2020 16:50:00 26.1 C 14.44 g/m*3 26.1 C 6.4 km/h
780 25-06-2020 16:55:00 26.2 C 14.52 g/m*3 26.2 C 8.1 km/h
781 25-06-2020 17:00:00 26.3 C 14.61 g/m*3 26.3 C 8.1 km/h
782 25-06-2020 17:05:00 26.2 C 14.52 g/m*3 26.2 C 9.7 km/h
783 25-06-2020 17:10:00 26.2 C 14.77 g/m*3 26.2 C 8.1 km/h
784 25-06-2020 17:15:00 26.1 C 14.69 g/m*3 26.1 C 11.3 km/h
785 25-06-2020 17:20:00 26.1 C 14.69 g/m*3 26.1 C 11.3 km/h
786 25-06-2020 17:25:00 26.1 C 14.69 g/m*3 26.1 C 12.9 km/h
787 25-06-2020 17:30:00 26.1 C 14.44 g/m*3 26.1 C 11.3 km/h
788 25-06-2020 17:35:00 26.2 C 14.52 g/m*3 26.2 C 8.1 km/h
789 25-06-2020 17:40:00 26.2 C 14.28 g/m*3 26.2 C 14.5 km/h
790 25-06-2020 17:45:00 26.3 C 14.85 g/m*3 26.3 C 9.7 km/h
791 25-06-2020 17:50:00 26.4 C 14.69 g/m*3 26.4 C 8.1 km/h
792 25-06-2020 17:55:00 26.5 C 14.77 g/m*3 26.5 C 8.1 km/h
793 25-06-2020 18:00:00 26.6 C 14.85 g/m*3 26.6 C 4.8 km/h
794 25-06-2020 18:05:00 26.7 C 14.93 g/m*3 26.7 C 12.9 km/h
795 25-06-2020 18:10:00 26.6 C 14.85 g/m*3 26.6 C 9.7 km/h
796 25-06-2020 18:15:00 26.8 C 14.76 g/m*3 26.8 C 11.3 km/h
797 25-06-2020 18:20:00 26.7 C 14.68 g/m*3 26.7 C 9.7 km/h
798 25-06-2020 18:25:00 26.4 C 14.69 g/m*3 26.4 C 8.1 km/h
799 25-06-2020 18:30:00 26.2 C 14.77 g/m*3 26.2 C 6.4 km/h
800 25-06-2020 18:35:00 26.1 C 14.69 g/m*3 26.1 C 6.4 km/h
Sensor: Nr:Datum:Temp:Abs-Feuchte:Windchill:Wind:
Aussen-T/F 801 25-06-2020 18:40:00 26.3 C 14.85 g/m*3 26.3 C 4.8 km/h
802 25-06-2020 18:45:00 26.9 C 15.61 g/m*3 26.9 C 6.4 km/h
803 25-06-2020 18:50:00 27.2 C 15.09 g/m*3 27.2 C 11.3 km/h
804 25-06-2020 18:55:00 27.5 C 15.08 g/m*3 27.5 C 6.4 km/h
805 25-06-2020 19:00:00 27.9 C 15.15 g/m*3 27.9 C 8.1 km/h
806 25-06-2020 19:05:00 28.1 C 14.77 g/m*3 28.1 C 9.7 km/h
807 25-06-2020 19:10:00 28.3 C 14.65 g/m*3 28.3 C 8.1 km/h
808 25-06-2020 19:15:00 28.1 C 14.77 g/m*3 28.1 C 6.4 km/h
809 25-06-2020 19:20:00 28.1 C 15.04 g/m*3 28.1 C 6.4 km/h
810 25-06-2020 19:25:00 28.1 C 14.77 g/m*3 28.1 C 8.1 km/h
811 25-06-2020 19:30:00 27.7 C 14.44 g/m*3 27.7 C 8.1 km/h
812 25-06-2020 19:35:00 27.6 C 14.63 g/m*3 27.6 C 8.1 km/h
813 25-06-2020 19:40:00 27.4 C 14.21 g/m*3 27.4 C 8.1 km/h
814 25-06-2020 19:45:00 27.1 C 13.97 g/m*3 27.1 C 9.7 km/h
815 25-06-2020 19:50:00 26.9 C 14.08 g/m*3 26.9 C 9.7 km/h
816 25-06-2020 19:55:00 26.7 C 14.17 g/m*3 26.7 C 11.3 km/h
817 25-06-2020 20:00:00 26.7 C 14.17 g/m*3 26.7 C 11.3 km/h
818 25-06-2020 20:05:00 26.7 C 14.17 g/m*3 26.7 C 6.4 km/h
819 25-06-2020 20:10:00 26.6 C 14.35 g/m*3 26.6 C 6.4 km/h
820 25-06-2020 20:15:00 26.7 C 14.17 g/m*3 26.7 C 6.4 km/h
821 25-06-2020 20:20:00 26.8 C 14.25 g/m*3 26.8 C 4.8 km/h
822 25-06-2020 20:25:00 26.8 C 14.25 g/m*3 26.8 C 8.1 km/h
823 25-06-2020 20:30:00 26.8 C 14.25 g/m*3 26.8 C 8.1 km/h
824 25-06-2020 20:35:00 26.7 C 14.17 g/m*3 26.7 C 6.4 km/h
825 25-06-2020 20:40:00 26.6 C 14.35 g/m*3 26.6 C 6.4 km/h
Sensor: Nr:Datum:Temp:Abs-Feuchte:Windchill:Wind:
Aussen-T/F 826 25-06-2020 20:45:00 26.6 C 14.35 g/m*3 26.6 C 3.2 km/h
827 25-06-2020 20:50:00 26.6 C 14.1 g/m*3 26.6 C 4.8 km/h
828 25-06-2020 20:55:00 26.4 C 15.19 g/m*3 26.4 C 3.2 km/h
829 25-06-2020 21:00:00 26.3 C 15.35 g/m*3 26.3 C 0 km/h
830 25-06-2020 21:05:00 26.1 C 15.18 g/m*3 26.1 C 0 km/h
831 25-06-2020 21:10:00 25.9 C 15.25 g/m*3 25.9 C 0 km/h
832 25-06-2020 21:15:00 25.5 C 14.91 g/m*3 25.5 C 4.8 km/h
833 25-06-2020 21:20:00 25.2 C 14.9 g/m*3 25.2 C 3.2 km/h
834 25-06-2020 21:25:00 24.8 C 14.8 g/m*3 24.8 C 1.6 km/h
835 25-06-2020 21:30:00 24.4 C 14.69 g/m*3 24.4 C 0 km/h
836 25-06-2020 21:35:00 24.1 C 14.66 g/m*3 24.1 C 0 km/h
837 25-06-2020 21:40:00 23.8 C 14.63 g/m*3 23.8 C 3.2 km/h
838 25-06-2020 21:45:00 23.6 C 14.68 g/m*3 23.6 C 3.2 km/h
839 25-06-2020 21:50:00 23.3 C 14.43 g/m*3 23.3 C 3.2 km/h
840 25-06-2020 21:55:00 23 C 14.39 g/m*3 23 C 6.4 km/h
841 25-06-2020 22:00:00 22.7 C 14.14 g/m*3 22.7 C 4.8 km/h
842 25-06-2020 22:05:00 22.5 C 13.98 g/m*3 22.5 C 4.8 km/h
843 25-06-2020 22:10:00 22.3 C 13.82 g/m*3 22.3 C 3.2 km/h
844 25-06-2020 22:15:00 22 C 13.59 g/m*3 22 C 3.2 km/h
845 25-06-2020 22:20:00 21.8 C 13.62 g/m*3 21.8 C 0 km/h
846 25-06-2020 22:25:00 21.6 C 13.47 g/m*3 21.6 C 0 km/h
847 25-06-2020 22:30:00 21.4 C 13.5 g/m*3 21.4 C 0 km/h
848 25-06-2020 22:35:00 21.2 C 13.34 g/m*3 21.2 C 4.8 km/h
849 25-06-2020 22:40:00 20.9 C 13.3 g/m*3 20.9 C 1.6 km/h
850 25-06-2020 22:45:00 20.8 C 13.22 g/m*3 20.8 C 4.8 km/h
Sensor: Nr:Datum:Temp:Abs-Feuchte:Windchill:Wind:
Aussen-T/F 851 25-06-2020 22:50:00 20.6 C 13.24 g/m*3 20.6 C 4.8 km/h
852 25-06-2020 22:55:00 20.4 C 13.09 g/m*3 20.4 C 4.8 km/h
853 25-06-2020 23:00:00 20.3 C 13.19 g/m*3 20.3 C 4.8 km/h
854 25-06-2020 23:05:00 20.2 C 13.29 g/m*3 20.2 C 6.4 km/h
855 25-06-2020 23:10:00 20 C 13.13 g/m*3 20 C 6.4 km/h
856 25-06-2020 23:15:00 19.9 C 13.06 g/m*3 19.9 C 4.8 km/h
857 25-06-2020 23:20:00 19.8 C 12.98 g/m*3 19.8 C 4.8 km/h
858 25-06-2020 23:25:00 19.7 C 13.08 g/m*3 19.7 C 3.2 km/h
859 25-06-2020 23:30:00 19.6 C 13 g/m*3 19.6 C 1.6 km/h
860 25-06-2020 23:35:00 19.4 C 13.01 g/m*3 19.4 C 3.2 km/h
861 25-06-2020 23:40:00 19.2 C 12.86 g/m*3 19.2 C 4.8 km/h
862 25-06-2020 23:45:00 19.1 C 12.95 g/m*3 19.1 C 4.8 km/h
863 25-06-2020 23:50:00 19 C 12.87 g/m*3 19 C 4.8 km/h
864 25-06-2020 23:55:00 18.9 C 12.96 g/m*3 18.9 C 3.2 km/h
865 26-06-2020 00:00:00 18.8 C 12.88 g/m*3 18.8 C 1.6 km/h
866 26-06-2020 00:05:00 18.6 C 12.73 g/m*3 18.6 C 3.2 km/h
867 26-06-2020 00:10:00 18.5 C 12.66 g/m*3 18.5 C 0 km/h
868 26-06-2020 00:15:00 18.4 C 12.74 g/m*3 18.4 C 1.6 km/h
869 26-06-2020 00:20:00 18.3 C 12.66 g/m*3 18.3 C 1.6 km/h
870 26-06-2020 00:25:00 18.2 C 12.59 g/m*3 18.2 C 1.6 km/h
871 26-06-2020 00:30:00 18 C 12.59 g/m*3 18 C 0 km/h
872 26-06-2020 00:35:00 17.9 C 12.52 g/m*3 17.9 C 0 km/h
873 26-06-2020 00:40:00 17.7 C 12.37 g/m*3 17.7 C 0 km/h
874 26-06-2020 00:45:00 17.6 C 12.3 g/m*3 17.6 C 0 km/h
875 26-06-2020 00:50:00 17.4 C 12.3 g/m*3 17.4 C 0 km/h
Sensor: Nr:Datum:Temp:Abs-Feuchte:Windchill:Wind:
Aussen-T/F 876 26-06-2020 00:55:00 17.3 C 12.23 g/m*3 17.3 C 0 km/h
877 26-06-2020 01:00:00 17.2 C 12.15 g/m*3 17.2 C 0 km/h
878 26-06-2020 01:05:00 17.1 C 12.08 g/m*3 17.1 C 0 km/h
879 26-06-2020 01:10:00 16.9 C 12.08 g/m*3 16.9 C 0 km/h
880 26-06-2020 01:15:00 16.8 C 12.01 g/m*3 16.8 C 0 km/h
881 26-06-2020 01:20:00 16.7 C 11.94 g/m*3 16.7 C 0 km/h
882 26-06-2020 01:25:00 16.6 C 12.01 g/m*3 16.6 C 0 km/h
883 26-06-2020 01:30:00 16.5 C 11.94 g/m*3 16.5 C 0 km/h
884 26-06-2020 01:35:00 16.3 C 11.79 g/m*3 16.3 C 0 km/h
885 26-06-2020 01:40:00 16.3 C 11.93 g/m*3 16.3 C 0 km/h
886 26-06-2020 01:45:00 16.2 C 11.86 g/m*3 16.2 C 0 km/h
887 26-06-2020 01:50:00 16.1 C 11.79 g/m*3 16.1 C 0 km/h
888 26-06-2020 01:55:00 16.1 C 11.93 g/m*3 16.1 C 1.6 km/h
889 26-06-2020 02:00:00 16 C 11.85 g/m*3 16 C 1.6 km/h
890 26-06-2020 02:05:00 15.9 C 11.78 g/m*3 15.9 C 0 km/h
891 26-06-2020 02:10:00 15.9 C 11.78 g/m*3 15.9 C 0 km/h
892 26-06-2020 02:15:00 15.8 C 11.71 g/m*3 15.8 C 0 km/h
893 26-06-2020 02:20:00 15.8 C 11.71 g/m*3 15.8 C 0 km/h
894 26-06-2020 02:25:00 15.7 C 11.77 g/m*3 15.7 C 0 km/h
895 26-06-2020 02:30:00 15.7 C 11.77 g/m*3 15.7 C 0 km/h
896 26-06-2020 02:35:00 15.7 C 11.77 g/m*3 15.7 C 0 km/h
897 26-06-2020 02:40:00 15.6 C 11.7 g/m*3 15.6 C 0 km/h
898 26-06-2020 02:45:00 15.6 C 11.7 g/m*3 15.6 C 0 km/h
899 26-06-2020 02:50:00 15.6 C 11.7 g/m*3 15.6 C 0 km/h
900 26-06-2020 02:55:00 15.5 C 11.63 g/m*3 15.5 C 0 km/h
Sensor: Nr:Datum:Temp:Abs-Feuchte:Windchill:Wind:
Aussen-T/F 901 26-06-2020 03:00:00 15.4 C 11.56 g/m*3 15.4 C 0 km/h
902 26-06-2020 03:05:00 15.4 C 11.56 g/m*3 15.4 C 0 km/h
903 26-06-2020 03:10:00 15.3 C 11.49 g/m*3 15.3 C 1.6 km/h
904 26-06-2020 03:15:00 15.3 C 11.49 g/m*3 15.3 C 0 km/h
905 26-06-2020 03:20:00 15.2 C 11.55 g/m*3 15.2 C 1.6 km/h
906 26-06-2020 03:25:00 15.1 C 11.48 g/m*3 15.1 C 1.6 km/h
907 26-06-2020 03:30:00 15.1 C 11.48 g/m*3 15.1 C 0 km/h
908 26-06-2020 03:35:00 14.9 C 11.34 g/m*3 14.9 C 0 km/h
909 26-06-2020 03:40:00 14.8 C 11.27 g/m*3 14.8 C 0 km/h
910 26-06-2020 03:45:00 14.8 C 11.27 g/m*3 14.8 C 0 km/h
911 26-06-2020 03:50:00 14.7 C 11.21 g/m*3 14.7 C 0 km/h
912 26-06-2020 03:55:00 14.7 C 11.33 g/m*3 14.7 C 0 km/h
913 26-06-2020 04:00:00 14.7 C 11.33 g/m*3 14.7 C 0 km/h
914 26-06-2020 04:05:00 14.7 C 11.33 g/m*3 14.7 C 0 km/h
915 26-06-2020 04:10:00 14.7 C 11.33 g/m*3 14.7 C 1.6 km/h
916 26-06-2020 04:15:00 14.6 C 11.26 g/m*3 14.6 C 0 km/h
917 26-06-2020 04:20:00 14.5 C 11.19 g/m*3 14.5 C 0 km/h
918 26-06-2020 04:25:00 14.4 C 11.25 g/m*3 14.4 C 0 km/h
919 26-06-2020 04:30:00 14.4 C 11.13 g/m*3 14.4 C 0 km/h
920 26-06-2020 04:35:00 14.3 C 11.18 g/m*3 14.3 C 0 km/h
921 26-06-2020 04:40:00 14.3 C 11.18 g/m*3 14.3 C 0 km/h
922 26-06-2020 04:45:00 14.3 C 11.18 g/m*3 14.3 C 0 km/h
923 26-06-2020 04:50:00 14.2 C 11.11 g/m*3 14.2 C 0 km/h
924 26-06-2020 04:55:00 14.1 C 11.04 g/m*3 14.1 C 0 km/h
925 26-06-2020 05:00:00 14.1 C 11.04 g/m*3 14.1 C 0 km/h
Sensor: Nr:Datum:Temp:Abs-Feuchte:Windchill:Wind:
Aussen-T/F 926 26-06-2020 05:05:00 14.1 C 11.17 g/m*3 14.1 C 0 km/h
927 26-06-2020 05:10:00 14.1 C 11.04 g/m*3 14.1 C 0 km/h
928 26-06-2020 05:15:00 14 C 10.98 g/m*3 14 C 0 km/h
929 26-06-2020 05:20:00 13.9 C 10.91 g/m*3 13.9 C 0 km/h
930 26-06-2020 05:25:00 13.8 C 10.96 g/m*3 13.8 C 0 km/h
931 26-06-2020 05:30:00 13.8 C 10.96 g/m*3 13.8 C 0 km/h
932 26-06-2020 05:35:00 13.8 C 10.96 g/m*3 13.8 C 0 km/h
933 26-06-2020 05:40:00 13.8 C 10.96 g/m*3 13.8 C 0 km/h
934 26-06-2020 05:45:00 13.8 C 10.96 g/m*3 13.8 C 0 km/h
935 26-06-2020 05:50:00 13.7 C 10.89 g/m*3 13.7 C 0 km/h
936 26-06-2020 05:55:00 13.7 C 10.89 g/m*3 13.7 C 0 km/h
937 26-06-2020 06:00:00 13.7 C 10.89 g/m*3 13.7 C 0 km/h
938 26-06-2020 06:05:00 13.7 C 11.01 g/m*3 13.7 C 0 km/h
939 26-06-2020 06:10:00 13.7 C 11.01 g/m*3 13.7 C 0 km/h
940 26-06-2020 06:15:00 13.7 C 11.01 g/m*3 13.7 C 0 km/h
941 26-06-2020 06:20:00 13.7 C 11.01 g/m*3 13.7 C 0 km/h
942 26-06-2020 06:25:00 13.8 C 11.08 g/m*3 13.8 C 0 km/h
943 26-06-2020 06:30:00 13.8 C 11.08 g/m*3 13.8 C 1.6 km/h
944 26-06-2020 06:35:00 13.8 C 11.08 g/m*3 13.8 C 0 km/h
945 26-06-2020 06:40:00 13.9 C 11.15 g/m*3 13.9 C 0 km/h
946 26-06-2020 06:45:00 13.9 C 11.15 g/m*3 13.9 C 1.6 km/h
947 26-06-2020 06:50:00 14 C 11.22 g/m*3 14 C 0 km/h
948 26-06-2020 06:55:00 14.1 C 11.41 g/m*3 14.1 C 0 km/h
949 26-06-2020 07:00:00 14.2 C 11.48 g/m*3 14.2 C 0 km/h
950 26-06-2020 07:05:00 14.2 C 11.48 g/m*3 14.2 C 1.6 km/h
Sensor: Nr:Datum:Temp:Abs-Feuchte:Windchill:Wind:
Aussen-T/F 951 26-06-2020 07:10:00 14.3 C 11.55 g/m*3 14.3 C 1.6 km/h
952 26-06-2020 07:15:00 14.4 C 11.62 g/m*3 14.4 C 0 km/h
953 26-06-2020 07:20:00 14.4 C 11.62 g/m*3 14.4 C 0 km/h
954 26-06-2020 07:25:00 14.6 C 11.76 g/m*3 14.6 C 0 km/h
955 26-06-2020 07:30:00 14.6 C 11.76 g/m*3 14.6 C 0 km/h
956 26-06-2020 07:35:00 14.7 C 11.83 g/m*3 14.7 C 0 km/h
957 26-06-2020 07:40:00 14.7 C 11.83 g/m*3 14.7 C 0 km/h
958 26-06-2020 07:45:00 14.8 C 11.91 g/m*3 14.8 C 0 km/h
959 26-06-2020 07:50:00 14.9 C 11.98 g/m*3 14.9 C 0 km/h
960 26-06-2020 07:55:00 15 C 12.05 g/m*3 15 C 1.6 km/h
961 26-06-2020 08:00:00 15.1 C 12.13 g/m*3 15.1 C 1.6 km/h
962 26-06-2020 08:05:00 15.2 C 12.2 g/m*3 15.2 C 0 km/h
963 26-06-2020 08:10:00 15.3 C 12.28 g/m*3 15.3 C 0 km/h
964 26-06-2020 08:15:00 15.4 C 12.35 g/m*3 15.4 C 3.2 km/h
965 26-06-2020 08:20:00 15.6 C 12.5 g/m*3 15.6 C 4.8 km/h
966 26-06-2020 08:25:00 15.7 C 12.58 g/m*3 15.7 C 1.6 km/h
967 26-06-2020 08:30:00 15.9 C 12.59 g/m*3 15.9 C 1.6 km/h
968 26-06-2020 08:35:00 16 C 12.67 g/m*3 16 C 0 km/h
969 26-06-2020 08:40:00 16.2 C 12.82 g/m*3 16.2 C 0 km/h
970 26-06-2020 08:45:00 16.3 C 12.76 g/m*3 16.3 C 0 km/h
971 26-06-2020 08:50:00 16.5 C 12.92 g/m*3 16.5 C 0 km/h
972 26-06-2020 08:55:00 16.7 C 12.93 g/m*3 16.7 C 0 km/h
973 26-06-2020 09:00:00 16.8 C 13.01 g/m*3 16.8 C 0 km/h
974 26-06-2020 09:05:00 17 C 13.02 g/m*3 17 C 0 km/h
975 26-06-2020 09:10:00 17.2 C 13.18 g/m*3 17.2 C 0 km/h
Sensor: Nr:Datum:Temp:Abs-Feuchte:Windchill:Wind:
Aussen-T/F 976 26-06-2020 09:15:00 17.3 C 13.11 g/m*3 17.3 C 0 km/h
977 26-06-2020 09:20:00 17.6 C 13.2 g/m*3 17.6 C 0 km/h
978 26-06-2020 09:25:00 18 C 13.06 g/m*3 18 C 8.1 km/h
979 26-06-2020 09:30:00 18.7 C 13.45 g/m*3 18.7 C 3.2 km/h
980 26-06-2020 09:35:00 18.9 C 13.45 g/m*3 18.9 C 1.6 km/h
981 26-06-2020 09:40:00 19.1 C 13.61 g/m*3 19.1 C 1.6 km/h
982 26-06-2020 09:45:00 19.2 C 13.52 g/m*3 19.2 C 4.8 km/h
983 26-06-2020 09:50:00 19.5 C 13.26 g/m*3 19.5 C 12.9 km/h
984 26-06-2020 09:55:00 20.2 C 13.11 g/m*3 20.2 C 12.9 km/h
985 26-06-2020 10:00:00 20.8 C 13.4 g/m*3 20.8 C 8.1 km/h
986 26-06-2020 10:05:00 21.7 C 13.93 g/m*3 21.7 C 9.7 km/h
987 26-06-2020 10:10:00 22.1 C 13.47 g/m*3 22.1 C 4.8 km/h
988 26-06-2020 10:15:00 22.4 C 13.9 g/m*3 22.4 C 4.8 km/h
989 26-06-2020 10:20:00 22.7 C 13.54 g/m*3 22.7 C 4.8 km/h
990 26-06-2020 10:25:00 23.1 C 14.26 g/m*3 23.1 C 4.8 km/h
991 26-06-2020 10:30:00 23.4 C 13.67 g/m*3 23.4 C 8.1 km/h
992 26-06-2020 10:35:00 23.9 C 13.63 g/m*3 23.9 C 9.7 km/h
993 26-06-2020 10:40:00 24.3 C 13.06 g/m*3 24.3 C 9.7 km/h
994 26-06-2020 10:45:00 24.6 C 13.05 g/m*3 24.6 C 4.8 km/h
995 26-06-2020 10:50:00 24.8 C 12.97 g/m*3 24.8 C 4.8 km/h
996 26-06-2020 10:55:00 25.1 C 13.2 g/m*3 25.1 C 8.1 km/h
997 26-06-2020 11:00:00 25.3 C 12.88 g/m*3 25.3 C 6.4 km/h
998 26-06-2020 11:05:00 25.4 C 12.48 g/m*3 25.4 C 6.4 km/h
999 26-06-2020 11:10:00 25.6 C 12.62 g/m*3 25.6 C 11.3 km/h
1000 26-06-2020 11:15:00 25.7 C 12.69 g/m*3 25.7 C 8.1 km/h
Sensor: Nr:Datum:Temp:Abs-Feuchte:Windchill:Wind:
Aussen-T/F 1001 26-06-2020 11:20:00 25.9 C 12.83 g/m*3 25.9 C 9.7 km/h
1002 26-06-2020 11:25:00 26.1 C 12.49 g/m*3 26.1 C 8.1 km/h
1003 26-06-2020 11:30:00 26.2 C 12.06 g/m*3 26.2 C 11.3 km/h
1004 26-06-2020 11:35:00 26.2 C 12.8 g/m*3 26.2 C 12.9 km/h
1005 26-06-2020 11:40:00 26.2 C 12.56 g/m*3 26.2 C 8.1 km/h
1006 26-06-2020 11:45:00 26.3 C 12.38 g/m*3 26.3 C 4.8 km/h
1007 26-06-2020 11:50:00 26.4 C 12.2 g/m*3 26.4 C 8.1 km/h
1008 26-06-2020 11:55:00 26.4 C 12.2 g/m*3 26.4 C 12.9 km/h
1009 26-06-2020 12:00:00 26.4 C 11.95 g/m*3 26.4 C 12.9 km/h
1010 26-06-2020 12:05:00 26.4 C 11.95 g/m*3 26.4 C 14.5 km/h
1011 26-06-2020 12:10:00 26.4 C 12.2 g/m*3 26.4 C 8.1 km/h
1012 26-06-2020 12:15:00 26.5 C 12.02 g/m*3 26.5 C 4.8 km/h
1013 26-06-2020 12:20:00 26.6 C 11.83 g/m*3 26.6 C 4.8 km/h
1014 26-06-2020 12:25:00 26.7 C 11.9 g/m*3 26.7 C 8.1 km/h
1015 26-06-2020 12:30:00 26.8 C 11.71 g/m*3 26.8 C 12.9 km/h
1016 26-06-2020 12:35:00 26.8 C 12.22 g/m*3 26.8 C 8.1 km/h
1017 26-06-2020 12:40:00 26.8 C 12.22 g/m*3 26.8 C 11.3 km/h
1018 26-06-2020 12:45:00 26.8 C 11.96 g/m*3 26.8 C 6.4 km/h
1019 26-06-2020 12:50:00 26.8 C 11.96 g/m*3 26.8 C 6.4 km/h
1020 26-06-2020 12:55:00 26.8 C 11.71 g/m*3 26.8 C 4.8 km/h
1021 26-06-2020 13:00:00 26.9 C 11.77 g/m*3 26.9 C 9.7 km/h
1022 26-06-2020 13:05:00 27 C 12.35 g/m*3 27 C 12.9 km/h
1023 26-06-2020 13:10:00 26.9 C 12.03 g/m*3 26.9 C 9.7 km/h
1024 26-06-2020 13:15:00 27 C 12.35 g/m*3 27 C 9.7 km/h
1025 26-06-2020 13:20:00 27.1 C 12.42 g/m*3 27.1 C 16.1 km/h
Sensor: Nr:Datum:Temp:Abs-Feuchte:Windchill:Wind:
Aussen-T/F 1026 26-06-2020 13:25:00 27.2 C 12.49 g/m*3 27.2 C 16.1 km/h
1027 26-06-2020 13:30:00 27.2 C 12.23 g/m*3 27.2 C 11.3 km/h
1028 26-06-2020 13:35:00 27.3 C 12.3 g/m*3 27.3 C 12.9 km/h
1029 26-06-2020 13:40:00 27.6 C 12.5 g/m*3 27.6 C 11.3 km/h
1030 26-06-2020 13:45:00 27.6 C 13.04 g/m*3 27.6 C 9.7 km/h
1031 26-06-2020 13:50:00 27.8 C 13.18 g/m*3 27.8 C 4.8 km/h
1032 26-06-2020 13:55:00 27.8 C 12.37 g/m*3 27.8 C 8.1 km/h
1033 26-06-2020 14:00:00 27.8 C 12.64 g/m*3 27.8 C 9.7 km/h
1034 26-06-2020 14:05:00 27.8 C 12.37 g/m*3 27.8 C 8.1 km/h
1035 26-06-2020 14:10:00 27.9 C 12.71 g/m*3 27.9 C 8.1 km/h
1036 26-06-2020 14:15:00 28 C 12.78 g/m*3 28 C 9.7 km/h
1037 26-06-2020 14:20:00 28.2 C 13.2 g/m*3 28.2 C 16.1 km/h
1038 26-06-2020 14:25:00 28.4 C 12.79 g/m*3 28.4 C 11.3 km/h
1039 26-06-2020 14:30:00 28.6 C 12.65 g/m*3 28.6 C 6.4 km/h
1040 26-06-2020 14:35:00 28.7 C 13.28 g/m*3 28.7 C 9.7 km/h
1041 26-06-2020 14:40:00 28.8 C 12.79 g/m*3 28.8 C 9.7 km/h
1042 26-06-2020 14:45:00 28.9 C 12.57 g/m*3 28.9 C 9.7 km/h
1043 26-06-2020 14:50:00 29.1 C 13.28 g/m*3 29.1 C 9.7 km/h
1044 26-06-2020 14:55:00 29.4 C 13.21 g/m*3 29.4 C 11.3 km/h
1045 26-06-2020 15:00:00 29.6 C 12.76 g/m*3 29.6 C 8.1 km/h
1046 26-06-2020 15:05:00 29.7 C 12.83 g/m*3 29.7 C 9.7 km/h
1047 26-06-2020 15:10:00 29.7 C 12.53 g/m*3 29.7 C 9.7 km/h
1048 26-06-2020 15:15:00 29.6 C 12.46 g/m*3 29.6 C 9.7 km/h
1049 26-06-2020 15:20:00 29.6 C 12.76 g/m*3 29.6 C 11.3 km/h
1050 26-06-2020 15:25:00 29.8 C 12.9 g/m*3 29.8 C 4.8 km/h
Sensor: Nr:Datum:Temp:Abs-Feuchte:Windchill:Wind:
Aussen-T/F 1051 26-06-2020 15:30:00 30.2 C 13.79 g/m*3 30.2 C 12.9 km/h
1052 26-06-2020 15:35:00 30.3 C 12.94 g/m*3 30.3 C 8.1 km/h
1053 26-06-2020 15:40:00 30.6 C 12.84 g/m*3 30.6 C 12.9 km/h
1054 26-06-2020 15:45:00 30.8 C 12.66 g/m*3 30.8 C 11.3 km/h
1055 26-06-2020 15:50:00 30.9 C 13.69 g/m*3 30.9 C 4.8 km/h
1056 26-06-2020 15:55:00 31.1 C 13.19 g/m*3 31.1 C 8.1 km/h
1057 26-06-2020 16:00:00 31.2 C 12.94 g/m*3 31.2 C 6.4 km/h
1058 26-06-2020 16:05:00 31.5 C 13.48 g/m*3 31.5 C 6.4 km/h
1059 26-06-2020 16:10:00 31.8 C 13.36 g/m*3 31.8 C 4.8 km/h
1060 26-06-2020 16:15:00 31.8 C 12.69 g/m*3 31.8 C 11.3 km/h
1061 26-06-2020 16:20:00 31.5 C 13.15 g/m*3 31.5 C 12.9 km/h
1062 26-06-2020 16:25:00 31.6 C 12.89 g/m*3 31.6 C 9.7 km/h
1063 26-06-2020 16:30:00 31.6 C 12.89 g/m*3 31.6 C 9.7 km/h
1064 26-06-2020 16:35:00 31.7 C 13.95 g/m*3 31.7 C 8.1 km/h
1065 26-06-2020 16:40:00 32.1 C 12.56 g/m*3 32.1 C 14.5 km/h
1066 26-06-2020 16:45:00 32 C 12.49 g/m*3 32 C 12.9 km/h
1067 26-06-2020 16:50:00 31.9 C 12.76 g/m*3 31.9 C 22.5 km/h
1068 26-06-2020 16:55:00 31.8 C 13.36 g/m*3 31.8 C 22.5 km/h
1069 26-06-2020 17:00:00 31.9 C 13.43 g/m*3 31.9 C 8.1 km/h
1070 26-06-2020 17:05:00 31.9 C 13.43 g/m*3 31.9 C 3.2 km/h
1071 26-06-2020 17:10:00 31.8 C 13.03 g/m*3 31.8 C 4.8 km/h
1072 26-06-2020 17:15:00 31.7 C 12.96 g/m*3 31.7 C 3.2 km/h
1073 26-06-2020 17:20:00 31.7 C 12.62 g/m*3 31.7 C 3.2 km/h
1074 26-06-2020 17:25:00 31.6 C 12.56 g/m*3 31.6 C 11.3 km/h
1075 26-06-2020 17:30:00 31.2 C 12.29 g/m*3 31.2 C 9.7 km/h
Sensor: Nr:Datum:Temp:Abs-Feuchte:Windchill:Wind:
Aussen-T/F 1076 26-06-2020 17:35:00 30.9 C 12.41 g/m*3 30.9 C 8.1 km/h
1077 26-06-2020 17:40:00 30.8 C 14.25 g/m*3 30.8 C 1.6 km/h
1078 26-06-2020 17:45:00 30.7 C 15.75 g/m*3 30.7 C 0 km/h
1079 26-06-2020 17:50:00 30.4 C 15.49 g/m*3 30.4 C 4.8 km/h
1080 26-06-2020 17:55:00 30.2 C 15.63 g/m*3 30.2 C 3.2 km/h
1081 26-06-2020 18:00:00 29.8 C 15.3 g/m*3 29.8 C 1.6 km/h
1082 26-06-2020 18:05:00 29.3 C 15.18 g/m*3 29.3 C 0 km/h
1083 26-06-2020 18:10:00 29 C 14.94 g/m*3 29 C 1.6 km/h
1084 26-06-2020 18:15:00 28.7 C 15.26 g/m*3 28.7 C 0 km/h
1085 26-06-2020 18:20:00 28.4 C 15.29 g/m*3 28.4 C 0 km/h
1086 26-06-2020 18:25:00 28.1 C 15.04 g/m*3 28.1 C 0 km/h
1087 26-06-2020 18:30:00 27.9 C 15.69 g/m*3 27.9 C 0 km/h
1088 26-06-2020 18:35:00 27.6 C 14.9 g/m*3 27.6 C 9.7 km/h
1089 26-06-2020 18:40:00 27.3 C 14.39 g/m*3 27.3 C 8.1 km/h
1090 26-06-2020 18:45:00 27.1 C 14.49 g/m*3 27.1 C 9.7 km/h
1091 26-06-2020 18:50:00 26.9 C 15.1 g/m*3 26.9 C 8.1 km/h
1092 26-06-2020 18:55:00 26.7 C 15.44 g/m*3 26.7 C 8.1 km/h
1093 26-06-2020 19:00:00 26.4 C 15.43 g/m*3 26.4 C 6.4 km/h
1094 26-06-2020 19:05:00 26.1 C 15.42 g/m*3 26.1 C 8.1 km/h
1095 26-06-2020 19:10:00 25.8 C 14.69 g/m*3 25.8 C 16.1 km/h
1096 26-06-2020 19:15:00 25.7 C 14.36 g/m*3 25.7 C 19.3 km/h
1097 26-06-2020 19:20:00 25.6 C 14.05 g/m*3 25.6 C 17.7 km/h
1098 26-06-2020 19:25:00 25.6 C 13.81 g/m*3 25.6 C 20.9 km/h
1099 26-06-2020 19:30:00 25.3 C 13.58 g/m*3 25.3 C 27.4 km/h
1100 26-06-2020 19:35:00 25.1 C 13.66 g/m*3 25.1 C 19.3 km/h
Sensor: Nr:Datum:Temp:Abs-Feuchte:Windchill:Wind:
Aussen-T/F 1101 26-06-2020 19:40:00 24.9 C 13.96 g/m*3 24.9 C 14.5 km/h
1102 26-06-2020 19:45:00 24.5 C 14.1 g/m*3 24.5 C 12.9 km/h
1103 26-06-2020 19:50:00 24.1 C 14 g/m*3 24.1 C 14.5 km/h
1104 26-06-2020 19:55:00 23.9 C 14.06 g/m*3 23.9 C 6.4 km/h
1105 26-06-2020 20:00:00 23.8 C 14.2 g/m*3 23.8 C 3.2 km/h
1106 26-06-2020 20:05:00 23.7 C 14.12 g/m*3 23.7 C 3.2 km/h
1107 26-06-2020 20:10:00 23.6 C 14.25 g/m*3 23.6 C 4.8 km/h
1108 26-06-2020 20:15:00 23.5 C 14.17 g/m*3 23.5 C 8.1 km/h
1109 26-06-2020 20:20:00 23.4 C 14.3 g/m*3 23.4 C 4.8 km/h
1110 26-06-2020 20:25:00 23.3 C 14.22 g/m*3 23.3 C 3.2 km/h
1111 26-06-2020 20:30:00 23.2 C 14.34 g/m*3 23.2 C 4.8 km/h
1112 26-06-2020 20:35:00 23.2 C 14.97 g/m*3 23.2 C 0 km/h
1113 26-06-2020 20:40:00 23.1 C 15.3 g/m*3 23.1 C 1.6 km/h
1114 26-06-2020 20:45:00 22.8 C 15.04 g/m*3 22.8 C 6.4 km/h
1115 26-06-2020 20:50:00 22.6 C 14.87 g/m*3 22.6 C 6.4 km/h
1116 26-06-2020 20:55:00 22.3 C 14.81 g/m*3 22.3 C 8.1 km/h
1117 26-06-2020 21:00:00 22.1 C 14.84 g/m*3 22.1 C 6.4 km/h
1118 26-06-2020 21:05:00 22 C 14.94 g/m*3 22 C 3.2 km/h
1119 26-06-2020 21:10:00 21.8 C 14.77 g/m*3 21.8 C 3.2 km/h
1120 26-06-2020 21:15:00 21.7 C 14.69 g/m*3 21.7 C 4.8 km/h
1121 26-06-2020 21:20:00 21.6 C 14.79 g/m*3 21.6 C 0 km/h
1122 26-06-2020 21:25:00 21.6 C 14.79 g/m*3 21.6 C 3.2 km/h
1123 26-06-2020 21:30:00 21.4 C 14.62 g/m*3 21.4 C 0 km/h
1124 26-06-2020 21:35:00 21.3 C 14.73 g/m*3 21.3 C 0 km/h
1125 26-06-2020 21:40:00 21.3 C 14.73 g/m*3 21.3 C 11.3 km/h
Sensor: Nr:Datum:Temp:Abs-Feuchte:Windchill:Wind:
Aussen-T/F 1126 26-06-2020 21:45:00 21.3 C 14.73 g/m*3 21.3 C 8.1 km/h
1127 26-06-2020 21:50:00 21.3 C 14.91 g/m*3 21.3 C 8.1 km/h
1128 26-06-2020 21:55:00 21.3 C 14.91 g/m*3 21.3 C 6.4 km/h
1129 26-06-2020 22:00:00 21.3 C 14.91 g/m*3 21.3 C 3.2 km/h
1130 26-06-2020 22:05:00 21.2 C 14.83 g/m*3 21.2 C 8.1 km/h
1131 26-06-2020 22:10:00 21.1 C 14.74 g/m*3 21.1 C 4.8 km/h
1132 26-06-2020 22:15:00 21.1 C 14.74 g/m*3 21.1 C 4.8 km/h
1133 26-06-2020 22:20:00 21.1 C 14.74 g/m*3 21.1 C 9.7 km/h
1134 26-06-2020 22:25:00 21.1 C 14.92 g/m*3 21.1 C 3.2 km/h
1135 26-06-2020 22:30:00 21 C 14.84 g/m*3 21 C 1.6 km/h
1136 26-06-2020 22:35:00 21 C 14.84 g/m*3 21 C 0 km/h
1137 26-06-2020 22:40:00 20.9 C 14.75 g/m*3 20.9 C 0 km/h
1138 26-06-2020 22:45:00 20.8 C 14.85 g/m*3 20.8 C 0 km/h
1139 26-06-2020 22:50:00 20.8 C 14.85 g/m*3 20.8 C 0 km/h
1140 26-06-2020 22:55:00 20.7 C 14.76 g/m*3 20.7 C 0 km/h
1141 26-06-2020 23:00:00 20.5 C 14.77 g/m*3 20.5 C 0 km/h
1142 26-06-2020 23:05:00 20.4 C 14.68 g/m*3 20.4 C 0 km/h
1143 26-06-2020 23:10:00 20.3 C 14.6 g/m*3 20.3 C 1.6 km/h
1144 26-06-2020 23:15:00 20.2 C 14.69 g/m*3 20.2 C 1.6 km/h
1145 26-06-2020 23:20:00 20.2 C 14.69 g/m*3 20.2 C 1.6 km/h
1146 26-06-2020 23:25:00 20.1 C 14.6 g/m*3 20.1 C 1.6 km/h
1147 26-06-2020 23:30:00 20.1 C 14.6 g/m*3 20.1 C 0 km/h
1148 26-06-2020 23:35:00 20.1 C 14.43 g/m*3 20.1 C 3.2 km/h
1149 26-06-2020 23:40:00 20.1 C 14.43 g/m*3 20.1 C 3.2 km/h
1150 26-06-2020 23:45:00 20.2 C 14.51 g/m*3 20.2 C 3.2 km/h
Sensor: Nr:Datum:Temp:Abs-Feuchte:Windchill:Wind:
Aussen-T/F 1151 26-06-2020 23:50:00 20.2 C 14.34 g/m*3 20.2 C 3.2 km/h
1152 26-06-2020 23:55:00 20.2 C 14.34 g/m*3 20.2 C 4.8 km/h
1153 27-06-2020 00:00:00 20.3 C 14.25 g/m*3 20.3 C 3.2 km/h
1154 27-06-2020 00:05:00 20.4 C 14.33 g/m*3 20.4 C 9.7 km/h
1155 27-06-2020 00:10:00 20.4 C 14.33 g/m*3 20.4 C 9.7 km/h
1156 27-06-2020 00:15:00 20.4 C 14.33 g/m*3 20.4 C 4.8 km/h
1157 27-06-2020 00:20:00 20.4 C 14.15 g/m*3 20.4 C 9.7 km/h
1158 27-06-2020 00:25:00 20.5 C 14.23 g/m*3 20.5 C 9.7 km/h
1159 27-06-2020 00:30:00 20.5 C 14.23 g/m*3 20.5 C 8.1 km/h
1160 27-06-2020 00:35:00 20.4 C 14.15 g/m*3 20.4 C 1.6 km/h
1161 27-06-2020 00:40:00 20.4 C 14.33 g/m*3 20.4 C 9.7 km/h
1162 27-06-2020 00:45:00 20.3 C 14.42 g/m*3 20.3 C 4.8 km/h
1163 27-06-2020 00:50:00 20.2 C 14.34 g/m*3 20.2 C 8.1 km/h
1164 27-06-2020 00:55:00 20.1 C 14.25 g/m*3 20.1 C 3.2 km/h
1165 27-06-2020 01:00:00 20 C 14.17 g/m*3 20 C 1.6 km/h
1166 27-06-2020 01:05:00 19.9 C 14.09 g/m*3 19.9 C 0 km/h
1167 27-06-2020 01:10:00 19.8 C 14.01 g/m*3 19.8 C 3.2 km/h
1168 27-06-2020 01:15:00 19.8 C 14.18 g/m*3 19.8 C 0 km/h
1169 27-06-2020 01:20:00 19.7 C 14.09 g/m*3 19.7 C 0 km/h
1170 27-06-2020 01:25:00 19.5 C 13.93 g/m*3 19.5 C 0 km/h
1171 27-06-2020 01:30:00 19.3 C 13.77 g/m*3 19.3 C 0 km/h
1172 27-06-2020 01:35:00 19.2 C 13.85 g/m*3 19.2 C 0 km/h
1173 27-06-2020 01:40:00 19 C 13.69 g/m*3 19 C 1.6 km/h
1174 27-06-2020 01:45:00 18.9 C 13.77 g/m*3 18.9 C 0 km/h
1175 27-06-2020 01:50:00 18.8 C 13.69 g/m*3 18.8 C 0 km/h
Sensor: Nr:Datum:Temp:Abs-Feuchte:Windchill:Wind:
Aussen-T/F 1176 27-06-2020 01:55:00 18.8 C 13.85 g/m*3 18.8 C 0 km/h
1177 27-06-2020 02:00:00 18.7 C 13.77 g/m*3 18.7 C 0 km/h
1178 27-06-2020 02:05:00 18.6 C 13.69 g/m*3 18.6 C 0 km/h
1179 27-06-2020 02:10:00 18.5 C 13.61 g/m*3 18.5 C 0 km/h
1180 27-06-2020 02:15:00 18.4 C 13.53 g/m*3 18.4 C 1.6 km/h
1181 27-06-2020 02:20:00 18.3 C 13.6 g/m*3 18.3 C 0 km/h
1182 27-06-2020 02:25:00 18.2 C 13.52 g/m*3 18.2 C 0 km/h
1183 27-06-2020 02:30:00 18.2 C 13.68 g/m*3 18.2 C 0 km/h
1184 27-06-2020 02:35:00 18.2 C 13.68 g/m*3 18.2 C 0 km/h
1185 27-06-2020 02:40:00 18.1 C 13.6 g/m*3 18.1 C 0 km/h
1186 27-06-2020 02:45:00 18.1 C 13.6 g/m*3 18.1 C 0 km/h
1187 27-06-2020 02:50:00 18.1 C 13.6 g/m*3 18.1 C 3.2 km/h
1188 27-06-2020 02:55:00 18.1 C 13.75 g/m*3 18.1 C 0 km/h
1189 27-06-2020 03:00:00 18.1 C 13.75 g/m*3 18.1 C 0 km/h
1190 27-06-2020 03:05:00 18.2 C 13.83 g/m*3 18.2 C 0 km/h
1191 27-06-2020 03:10:00 18.2 C 13.83 g/m*3 18.2 C 0 km/h
1192 27-06-2020 03:15:00 18.2 C 13.99 g/m*3 18.2 C 0 km/h
1193 27-06-2020 03:20:00 18.3 C 14.07 g/m*3 18.3 C 0 km/h
1194 27-06-2020 03:25:00 18.3 C 13.92 g/m*3 18.3 C 0 km/h
1195 27-06-2020 03:30:00 18.3 C 13.92 g/m*3 18.3 C 0 km/h
1196 27-06-2020 03:35:00 18.3 C 13.92 g/m*3 18.3 C 0 km/h
1197 27-06-2020 03:40:00 18.4 C 14 g/m*3 18.4 C 0 km/h
1198 27-06-2020 03:45:00 18.4 C 14 g/m*3 18.4 C 1.6 km/h
1199 27-06-2020 03:50:00 18.4 C 14.16 g/m*3 18.4 C 0 km/h
1200 27-06-2020 03:55:00 18.4 C 14.16 g/m*3 18.4 C 0 km/h
Sensor: Nr:Datum:Temp:Abs-Feuchte:Windchill:Wind:
Aussen-T/F 1201 27-06-2020 04:00:00 18.4 C 14 g/m*3 18.4 C 0 km/h
1202 27-06-2020 04:05:00 18.4 C 14 g/m*3 18.4 C 0 km/h
1203 27-06-2020 04:10:00 18.3 C 13.92 g/m*3 18.3 C 0 km/h
1204 27-06-2020 04:15:00 18.3 C 13.92 g/m*3 18.3 C 0 km/h
1205 27-06-2020 04:20:00 18.3 C 13.92 g/m*3 18.3 C 0 km/h
1206 27-06-2020 04:25:00 18.2 C 13.83 g/m*3 18.2 C 0 km/h
1207 27-06-2020 04:30:00 18.1 C 13.75 g/m*3 18.1 C 0 km/h
1208 27-06-2020 04:35:00 18.1 C 13.75 g/m*3 18.1 C 0 km/h
1209 27-06-2020 04:40:00 18 C 13.82 g/m*3 18 C 0 km/h
1210 27-06-2020 04:45:00 17.9 C 13.74 g/m*3 17.9 C 0 km/h
1211 27-06-2020 04:50:00 17.8 C 13.66 g/m*3 17.8 C 3.2 km/h
1212 27-06-2020 04:55:00 17.8 C 13.66 g/m*3 17.8 C 1.6 km/h
1213 27-06-2020 05:00:00 17.7 C 13.58 g/m*3 17.7 C 0 km/h
1214 27-06-2020 05:05:00 17.6 C 13.5 g/m*3 17.6 C 0 km/h
1215 27-06-2020 05:10:00 17.5 C 13.57 g/m*3 17.5 C 0 km/h
1216 27-06-2020 05:15:00 17.4 C 13.49 g/m*3 17.4 C 0 km/h
1217 27-06-2020 05:20:00 17.4 C 13.49 g/m*3 17.4 C 0 km/h
1218 27-06-2020 05:25:00 17.3 C 13.41 g/m*3 17.3 C 0 km/h
1219 27-06-2020 05:30:00 17.3 C 13.55 g/m*3 17.3 C 0 km/h
1220 27-06-2020 05:35:00 17.4 C 13.63 g/m*3 17.4 C 0 km/h
1221 27-06-2020 05:40:00 17.4 C 13.63 g/m*3 17.4 C 0 km/h
1222 27-06-2020 05:45:00 17.4 C 13.63 g/m*3 17.4 C 1.6 km/h
1223 27-06-2020 05:50:00 17.6 C 13.95 g/m*3 17.6 C 1.6 km/h
1224 27-06-2020 05:55:00 17.6 C 13.95 g/m*3 17.6 C 3.2 km/h
1225 27-06-2020 06:00:00 17.7 C 14.03 g/m*3 17.7 C 0 km/h
Sensor: Nr:Datum:Temp:Abs-Feuchte:Windchill:Wind:
Aussen-T/F 1226 27-06-2020 06:05:00 17.7 C 14.03 g/m*3 17.7 C 0 km/h
1227 27-06-2020 06:10:00 17.8 C 14.12 g/m*3 17.8 C 4.8 km/h
1228 27-06-2020 06:15:00 17.9 C 14.2 g/m*3 17.9 C 3.2 km/h
1229 27-06-2020 06:20:00 18.1 C 14.21 g/m*3 18.1 C 3.2 km/h
1230 27-06-2020 06:25:00 18.2 C 14.3 g/m*3 18.2 C 1.6 km/h
1231 27-06-2020 06:30:00 18.3 C 14.38 g/m*3 18.3 C 1.6 km/h
1232 27-06-2020 06:35:00 18.4 C 14.31 g/m*3 18.4 C 3.2 km/h
1233 27-06-2020 06:40:00 18.6 C 14.48 g/m*3 18.6 C 3.2 km/h
1234 27-06-2020 06:45:00 18.7 C 14.57 g/m*3 18.7 C 3.2 km/h
1235 27-06-2020 06:50:00 18.7 C 14.57 g/m*3 18.7 C 0 km/h
1236 27-06-2020 06:55:00 18.8 C 14.49 g/m*3 18.8 C 3.2 km/h
1237 27-06-2020 07:00:00 18.9 C 14.58 g/m*3 18.9 C 1.6 km/h
1238 27-06-2020 07:05:00 19 C 14.67 g/m*3 19 C 0 km/h
1239 27-06-2020 07:10:00 19.1 C 14.75 g/m*3 19.1 C 0 km/h
1240 27-06-2020 07:15:00 19.2 C 14.68 g/m*3 19.2 C 0 km/h
1241 27-06-2020 07:20:00 19.3 C 14.93 g/m*3 19.3 C 0 km/h
1242 27-06-2020 07:25:00 19.6 C 15.02 g/m*3 19.6 C 8.1 km/h
1243 27-06-2020 07:30:00 19.8 C 15.03 g/m*3 19.8 C 9.7 km/h
1244 27-06-2020 07:35:00 20 C 15.04 g/m*3 20 C 6.4 km/h
1245 27-06-2020 07:40:00 20.2 C 15.04 g/m*3 20.2 C 11.3 km/h
1246 27-06-2020 07:45:00 20.3 C 15.13 g/m*3 20.3 C 9.7 km/h
1247 27-06-2020 07:50:00 20.4 C 14.86 g/m*3 20.4 C 16.1 km/h
1248 27-06-2020 07:55:00 20.4 C 14.86 g/m*3 20.4 C 14.5 km/h
1249 27-06-2020 08:00:00 20.5 C 14.77 g/m*3 20.5 C 17.7 km/h
1250 27-06-2020 08:05:00 20.5 C 14.77 g/m*3 20.5 C 17.7 km/h
Sensor: Nr:Datum:Temp:Abs-Feuchte:Windchill:Wind:
Aussen-T/F 1251 27-06-2020 08:10:00 20.6 C 14.86 g/m*3 20.6 C 12.9 km/h
1252 27-06-2020 08:15:00 20.6 C 14.68 g/m*3 20.6 C 12.9 km/h
1253 27-06-2020 08:20:00 20.7 C 14.94 g/m*3 20.7 C 9.7 km/h
1254 27-06-2020 08:25:00 20.8 C 14.85 g/m*3 20.8 C 17.7 km/h
1255 27-06-2020 08:30:00 21.1 C 14.92 g/m*3 21.1 C 16.1 km/h
1256 27-06-2020 08:35:00 21.3 C 14.91 g/m*3 21.3 C 14.5 km/h
1257 27-06-2020 08:40:00 21.4 C 15 g/m*3 21.4 C 12.9 km/h
1258 27-06-2020 08:45:00 21.5 C 14.9 g/m*3 21.5 C 9.7 km/h
1259 27-06-2020 08:50:00 21.5 C 14.71 g/m*3 21.5 C 14.5 km/h
1260 27-06-2020 08:55:00 21.5 C 14.71 g/m*3 21.5 C 9.7 km/h
1261 27-06-2020 09:00:00 21.4 C 14.62 g/m*3 21.4 C 0 km/h
1262 27-06-2020 09:05:00 21.4 C 14.81 g/m*3 21.4 C 4.8 km/h
1263 27-06-2020 09:10:00 21.4 C 14.62 g/m*3 21.4 C 4.8 km/h
1264 27-06-2020 09:15:00 21.4 C 14.81 g/m*3 21.4 C 3.2 km/h
1265 27-06-2020 09:20:00 21.5 C 15.09 g/m*3 21.5 C 3.2 km/h
1266 27-06-2020 09:25:00 21.6 C 14.98 g/m*3 21.6 C 6.4 km/h
1267 27-06-2020 09:30:00 21.7 C 14.88 g/m*3 21.7 C 4.8 km/h
1268 27-06-2020 09:35:00 21.8 C 14.77 g/m*3 21.8 C 4.8 km/h
1269 27-06-2020 09:40:00 21.9 C 14.67 g/m*3 21.9 C 1.6 km/h
1270 27-06-2020 09:45:00 22 C 14.75 g/m*3 22 C 4.8 km/h
1271 27-06-2020 09:50:00 22.1 C 14.64 g/m*3 22.1 C 8.1 km/h
1272 27-06-2020 09:55:00 22.2 C 14.72 g/m*3 22.2 C 8.1 km/h
1273 27-06-2020 10:00:00 22.4 C 14.89 g/m*3 22.4 C 9.7 km/h
1274 27-06-2020 10:05:00 22.6 C 14.87 g/m*3 22.6 C 9.7 km/h
1275 27-06-2020 10:10:00 22.7 C 14.95 g/m*3 22.7 C 1.6 km/h
Sensor: Nr:Datum:Temp:Abs-Feuchte:Windchill:Wind:
Aussen-T/F 1276 27-06-2020 10:15:00 22.8 C 15.24 g/m*3 22.8 C 3.2 km/h
1277 27-06-2020 10:20:00 22.9 C 14.51 g/m*3 22.9 C 6.4 km/h
1278 27-06-2020 10:25:00 22.9 C 14.71 g/m*3 22.9 C 9.7 km/h
1279 27-06-2020 10:30:00 23 C 14.59 g/m*3 23 C 6.4 km/h
1280 27-06-2020 10:35:00 23.1 C 14.68 g/m*3 23.1 C 12.9 km/h
1281 27-06-2020 10:40:00 23.2 C 14.55 g/m*3 23.2 C 8.1 km/h
1282 27-06-2020 10:45:00 23.3 C 14.64 g/m*3 23.3 C 8.1 km/h
1283 27-06-2020 10:50:00 23.5 C 14.8 g/m*3 23.5 C 14.5 km/h
1284 27-06-2020 10:55:00 23.6 C 14.46 g/m*3 23.6 C 11.3 km/h
1285 27-06-2020 11:00:00 23.6 C 14.68 g/m*3 23.6 C 9.7 km/h
1286 27-06-2020 11:05:00 23.6 C 14.68 g/m*3 23.6 C 11.3 km/h
1287 27-06-2020 11:10:00 23.5 C 14.59 g/m*3 23.5 C 8.1 km/h
1288 27-06-2020 11:15:00 23.4 C 14.72 g/m*3 23.4 C 3.2 km/h
1289 27-06-2020 11:20:00 23.3 C 14.64 g/m*3 23.3 C 8.1 km/h
1290 27-06-2020 11:25:00 23.1 C 14.68 g/m*3 23.1 C 6.4 km/h
1291 27-06-2020 11:30:00 22.9 C 14.51 g/m*3 22.9 C 6.4 km/h
1292 27-06-2020 11:35:00 22.9 C 14.51 g/m*3 22.9 C 8.1 km/h
1293 27-06-2020 11:40:00 22.8 C 14.63 g/m*3 22.8 C 9.7 km/h
1294 27-06-2020 11:45:00 22.7 C 14.55 g/m*3 22.7 C 9.7 km/h
1295 27-06-2020 11:50:00 22.7 C 14.55 g/m*3 22.7 C 4.8 km/h
1296 27-06-2020 11:55:00 22.6 C 14.66 g/m*3 22.6 C 8.1 km/h
1297 27-06-2020 12:00:00 22.5 C 14.58 g/m*3 22.5 C 4.8 km/h
1298 27-06-2020 12:05:00 22.4 C 14.7 g/m*3 22.4 C 11.3 km/h
1299 27-06-2020 12:10:00 22.3 C 14.61 g/m*3 22.3 C 6.4 km/h
1300 27-06-2020 12:15:00 22.2 C 14.72 g/m*3 22.2 C 3.2 km/h
Sensor: Nr:Datum:Temp:Abs-Feuchte:Windchill:Wind:
Aussen-T/F 1301 27-06-2020 12:20:00 22.2 C 14.72 g/m*3 22.2 C 6.4 km/h
1302 27-06-2020 12:25:00 22.3 C 15.01 g/m*3 22.3 C 4.8 km/h
1303 27-06-2020 12:30:00 22.5 C 14.98 g/m*3 22.5 C 6.4 km/h
1304 27-06-2020 12:35:00 22.7 C 15.36 g/m*3 22.7 C 4.8 km/h
1305 27-06-2020 12:40:00 22.8 C 15.24 g/m*3 22.8 C 3.2 km/h
1306 27-06-2020 12:45:00 22.9 C 15.33 g/m*3 22.9 C 4.8 km/h
1307 27-06-2020 12:50:00 22.9 C 15.33 g/m*3 22.9 C 6.4 km/h
1308 27-06-2020 12:55:00 23 C 15.42 g/m*3 23 C 8.1 km/h
1309 27-06-2020 13:00:00 23 C 15.42 g/m*3 23 C 11.3 km/h
1310 27-06-2020 13:05:00 23 C 15.62 g/m*3 23 C 6.4 km/h
1311 27-06-2020 13:10:00 22.9 C 15.33 g/m*3 22.9 C 11.3 km/h
1312 27-06-2020 13:15:00 22.9 C 15.33 g/m*3 22.9 C 3.2 km/h
1313 27-06-2020 13:20:00 22.9 C 15.53 g/m*3 22.9 C 4.8 km/h
1314 27-06-2020 13:25:00 22.9 C 15.33 g/m*3 22.9 C 4.8 km/h
1315 27-06-2020 13:30:00 22.9 C 15.53 g/m*3 22.9 C 3.2 km/h
1316 27-06-2020 13:35:00 23 C 15.42 g/m*3 23 C 4.8 km/h
1317 27-06-2020 13:40:00 23.1 C 15.71 g/m*3 23.1 C 3.2 km/h
1318 27-06-2020 13:45:00 23.2 C 15.8 g/m*3 23.2 C 0 km/h
1319 27-06-2020 13:50:00 23.4 C 15.77 g/m*3 23.4 C 4.8 km/h
1320 27-06-2020 13:55:00 23.7 C 15.83 g/m*3 23.7 C 11.3 km/h
1321 27-06-2020 14:00:00 23.9 C 15.79 g/m*3 23.9 C 8.1 km/h
1322 27-06-2020 14:05:00 24.2 C 15.62 g/m*3 24.2 C 14.5 km/h
1323 27-06-2020 14:10:00 24.6 C 15.53 g/m*3 24.6 C 16.1 km/h
1324 27-06-2020 14:15:00 24.7 C 15.62 g/m*3 24.7 C 12.9 km/h
1325 27-06-2020 14:20:00 24.9 C 15.57 g/m*3 24.9 C 14.5 km/h
Sensor: Nr:Datum:Temp:Abs-Feuchte:Windchill:Wind:
Aussen-T/F 1326 27-06-2020 14:25:00 25 C 15.19 g/m*3 25 C 12.9 km/h
1327 27-06-2020 14:30:00 25.4 C 14.83 g/m*3 25.4 C 19.3 km/h
1328 27-06-2020 14:35:00 25.8 C 14.93 g/m*3 25.8 C 19.3 km/h
1329 27-06-2020 14:40:00 26.2 C 14.77 g/m*3 26.2 C 19.3 km/h
1330 27-06-2020 14:45:00 26.4 C 14.69 g/m*3 26.4 C 14.5 km/h
1331 27-06-2020 14:50:00 26.7 C 14.68 g/m*3 26.7 C 14.5 km/h
1332 27-06-2020 14:55:00 26.8 C 14.51 g/m*3 26.8 C 24.1 km/h
1333 27-06-2020 15:00:00 27.1 C 14.75 g/m*3 27.1 C 24.1 km/h
1334 27-06-2020 15:05:00 27.3 C 14.65 g/m*3 27.3 C 22.5 km/h
1335 27-06-2020 15:10:00 27.5 C 14.29 g/m*3 27.5 C 20.9 km/h
1336 27-06-2020 15:15:00 27.7 C 14.44 g/m*3 27.7 C 14.5 km/h
1337 27-06-2020 15:20:00 27.7 C 14.18 g/m*3 27.7 C 14.5 km/h
1338 27-06-2020 15:25:00 27.6 C 14.1 g/m*3 27.6 C 24.1 km/h
1339 27-06-2020 15:30:00 27.7 C 14.71 g/m*3 27.7 C 17.7 km/h
1340 27-06-2020 15:35:00 28.2 C 14.3 g/m*3 28.2 C 17.7 km/h
1341 27-06-2020 15:40:00 28.3 C 14.38 g/m*3 28.3 C 17.7 km/h
1342 27-06-2020 15:45:00 28.4 C 14.18 g/m*3 28.4 C 19.3 km/h
1343 27-06-2020 15:50:00 28.2 C 14.02 g/m*3 28.2 C 17.7 km/h
1344 27-06-2020 15:55:00 28.3 C 14.1 g/m*3 28.3 C 19.3 km/h
1345 27-06-2020 16:00:00 28.5 C 14.25 g/m*3 28.5 C 20.9 km/h
1346 27-06-2020 16:05:00 28.6 C 14.61 g/m*3 28.6 C 16.1 km/h
1347 27-06-2020 16:10:00 28.6 C 14.61 g/m*3 28.6 C 17.7 km/h
1348 27-06-2020 16:15:00 28.5 C 14.53 g/m*3 28.5 C 16.1 km/h
1349 27-06-2020 16:20:00 28.7 C 14.69 g/m*3 28.7 C 19.3 km/h
1350 27-06-2020 16:25:00 28.9 C 14.57 g/m*3 28.9 C 17.7 km/h
Sensor: Nr:Datum:Temp:Abs-Feuchte:Windchill:Wind:
Aussen-T/F 1351 27-06-2020 16:30:00 29.1 C 14.73 g/m*3 29.1 C 16.1 km/h
1352 27-06-2020 16:35:00 29.1 C 14.73 g/m*3 29.1 C 17.7 km/h
1353 27-06-2020 16:40:00 29.1 C 14.73 g/m*3 29.1 C 20.9 km/h
1354 27-06-2020 16:45:00 28.9 C 14.57 g/m*3 28.9 C 17.7 km/h
1355 27-06-2020 16:50:00 29.1 C 14.73 g/m*3 29.1 C 17.7 km/h
1356 27-06-2020 16:55:00 29.4 C 14.68 g/m*3 29.4 C 17.7 km/h
1357 27-06-2020 17:00:00 29.6 C 15.43 g/m*3 29.6 C 16.1 km/h
1358 27-06-2020 17:05:00 29.8 C 14.4 g/m*3 29.8 C 20.9 km/h
1359 27-06-2020 17:10:00 29.8 C 14.7 g/m*3 29.8 C 9.7 km/h
1360 27-06-2020 17:15:00 29.3 C 14.31 g/m*3 29.3 C 20.9 km/h
1361 27-06-2020 17:20:00 28.5 C 14.25 g/m*3 28.5 C 16.1 km/h
1362 27-06-2020 17:25:00 28.6 C 14.33 g/m*3 28.6 C 9.7 km/h
1363 27-06-2020 17:30:00 28.7 C 14.41 g/m*3 28.7 C 12.9 km/h
1364 27-06-2020 17:35:00 28.9 C 14.57 g/m*3 28.9 C 17.7 km/h
1365 27-06-2020 17:40:00 29.1 C 14.44 g/m*3 29.1 C 17.7 km/h
1366 27-06-2020 17:45:00 28.5 C 14.25 g/m*3 28.5 C 16.1 km/h
1367 27-06-2020 17:50:00 28.1 C 14.22 g/m*3 28.1 C 14.5 km/h
1368 27-06-2020 17:55:00 27.8 C 13.72 g/m*3 27.8 C 14.5 km/h
1369 27-06-2020 18:00:00 27.6 C 13.83 g/m*3 27.6 C 9.7 km/h
1370 27-06-2020 18:05:00 27.2 C 13.79 g/m*3 27.2 C 19.3 km/h
1371 27-06-2020 18:10:00 27.1 C 13.97 g/m*3 27.1 C 12.9 km/h
1372 27-06-2020 18:15:00 27.3 C 14.39 g/m*3 27.3 C 12.9 km/h
1373 27-06-2020 18:20:00 28 C 14.14 g/m*3 28 C 12.9 km/h
1374 27-06-2020 18:25:00 28.5 C 13.7 g/m*3 28.5 C 14.5 km/h
1375 27-06-2020 18:30:00 28.3 C 14.1 g/m*3 28.3 C 16.1 km/h
Sensor: Nr:Datum:Temp:Abs-Feuchte:Windchill:Wind:
Aussen-T/F 1376 27-06-2020 18:35:00 28.3 C 14.38 g/m*3 28.3 C 6.4 km/h
1377 27-06-2020 18:40:00 28.3 C 14.1 g/m*3 28.3 C 9.7 km/h
1378 27-06-2020 18:45:00 28.6 C 14.33 g/m*3 28.6 C 11.3 km/h
1379 27-06-2020 18:50:00 28.7 C 14.13 g/m*3 28.7 C 22.5 km/h
1380 27-06-2020 18:55:00 28.6 C 14.05 g/m*3 28.6 C 12.9 km/h
1381 27-06-2020 19:00:00 28.1 C 14.22 g/m*3 28.1 C 11.3 km/h
1382 27-06-2020 19:05:00 27.7 C 13.91 g/m*3 27.7 C 12.9 km/h
1383 27-06-2020 19:10:00 27.3 C 13.87 g/m*3 27.3 C 11.3 km/h
1384 27-06-2020 19:15:00 27 C 13.64 g/m*3 27 C 14.5 km/h
1385 27-06-2020 19:20:00 26.8 C 13.74 g/m*3 26.8 C 9.7 km/h
1386 27-06-2020 19:25:00 26.6 C 13.59 g/m*3 26.6 C 12.9 km/h
1387 27-06-2020 19:30:00 26.4 C 13.69 g/m*3 26.4 C 12.9 km/h
1388 27-06-2020 19:35:00 26.3 C 13.62 g/m*3 26.3 C 11.3 km/h
1389 27-06-2020 19:40:00 26.2 C 13.54 g/m*3 26.2 C 12.9 km/h
1390 27-06-2020 19:45:00 26.1 C 13.46 g/m*3 26.1 C 11.3 km/h
1391 27-06-2020 19:50:00 26.1 C 13.71 g/m*3 26.1 C 6.4 km/h
1392 27-06-2020 19:55:00 25.9 C 13.32 g/m*3 25.9 C 9.7 km/h
1393 27-06-2020 20:00:00 25.9 C 13.56 g/m*3 25.9 C 4.8 km/h
1394 27-06-2020 20:05:00 25.9 C 13.56 g/m*3 25.9 C 3.2 km/h
1395 27-06-2020 20:10:00 25.8 C 13.96 g/m*3 25.8 C 8.1 km/h
1396 27-06-2020 20:15:00 25.7 C 13.89 g/m*3 25.7 C 8.1 km/h
1397 27-06-2020 20:20:00 25.6 C 13.33 g/m*3 25.6 C 16.1 km/h
1398 27-06-2020 20:25:00 25.6 C 13.57 g/m*3 25.6 C 9.7 km/h
1399 27-06-2020 20:30:00 25.5 C 13.73 g/m*3 25.5 C 6.4 km/h
1400 27-06-2020 20:35:00 25.4 C 13.89 g/m*3 25.4 C 8.1 km/h
Sensor: Nr:Datum:Temp:Abs-Feuchte:Windchill:Wind:
Aussen-T/F 1401 27-06-2020 20:40:00 25.3 C 13.34 g/m*3 25.3 C 9.7 km/h
1402 27-06-2020 20:45:00 25.3 C 13.34 g/m*3 25.3 C 11.3 km/h
1403 27-06-2020 20:50:00 25.2 C 13.27 g/m*3 25.2 C 12.9 km/h
1404 27-06-2020 20:55:00 25.1 C 13.2 g/m*3 25.1 C 8.1 km/h
1405 27-06-2020 21:00:00 25.1 C 13.43 g/m*3 25.1 C 6.4 km/h
1406 27-06-2020 21:05:00 24.9 C 13.28 g/m*3 24.9 C 9.7 km/h
1407 27-06-2020 21:10:00 24.9 C 13.51 g/m*3 24.9 C 1.6 km/h
1408 27-06-2020 21:15:00 24.7 C 13.35 g/m*3 24.7 C 4.8 km/h
1409 27-06-2020 21:20:00 24.7 C 13.81 g/m*3 24.7 C 4.8 km/h
1410 27-06-2020 21:25:00 24.4 C 13.8 g/m*3 24.4 C 9.7 km/h
1411 27-06-2020 21:30:00 24.3 C 13.72 g/m*3 24.3 C 4.8 km/h
1412 27-06-2020 21:35:00 24.2 C 13.86 g/m*3 24.2 C 6.4 km/h
1413 27-06-2020 21:40:00 24.1 C 13.78 g/m*3 24.1 C 3.2 km/h
1414 27-06-2020 21:45:00 23.9 C 13.85 g/m*3 23.9 C 8.1 km/h
1415 27-06-2020 21:50:00 23.7 C 13.69 g/m*3 23.7 C 3.2 km/h
1416 27-06-2020 21:55:00 23.6 C 13.82 g/m*3 23.6 C 4.8 km/h
1417 27-06-2020 22:00:00 23.4 C 13.88 g/m*3 23.4 C 4.8 km/h
1418 27-06-2020 22:05:00 23.3 C 13.8 g/m*3 23.3 C 3.2 km/h
1419 27-06-2020 22:10:00 23.2 C 13.93 g/m*3 23.2 C 3.2 km/h
1420 27-06-2020 22:15:00 23.1 C 13.85 g/m*3 23.1 C 3.2 km/h
1421 27-06-2020 22:20:00 22.9 C 13.9 g/m*3 22.9 C 1.6 km/h
1422 27-06-2020 22:25:00 22.8 C 13.82 g/m*3 22.8 C 4.8 km/h
1423 27-06-2020 22:30:00 22.7 C 13.74 g/m*3 22.7 C 3.2 km/h
1424 27-06-2020 22:35:00 22.7 C 13.94 g/m*3 22.7 C 3.2 km/h
1425 27-06-2020 22:40:00 22.6 C 13.86 g/m*3 22.6 C 3.2 km/h
Sensor: Nr:Datum:Temp:Abs-Feuchte:Windchill:Wind:
Aussen-T/F 1426 27-06-2020 22:45:00 22.6 C 14.06 g/m*3 22.6 C 3.2 km/h
1427 27-06-2020 22:50:00 22.5 C 14.18 g/m*3 22.5 C 4.8 km/h
1428 27-06-2020 22:55:00 22.4 C 14.1 g/m*3 22.4 C 3.2 km/h
1429 27-06-2020 23:00:00 22.2 C 13.94 g/m*3 22.2 C 4.8 km/h
1430 27-06-2020 23:05:00 22.1 C 14.05 g/m*3 22.1 C 3.2 km/h
1431 27-06-2020 23:10:00 21.9 C 14.09 g/m*3 21.9 C 3.2 km/h
1432 27-06-2020 23:15:00 21.8 C 14.01 g/m*3 21.8 C 0 km/h
1433 27-06-2020 23:20:00 21.8 C 14.2 g/m*3 21.8 C 0 km/h
1434 27-06-2020 23:25:00 21.7 C 14.12 g/m*3 21.7 C 0 km/h
1435 27-06-2020 23:30:00 21.6 C 14.22 g/m*3 21.6 C 0 km/h
1436 27-06-2020 23:35:00 21.6 C 14.22 g/m*3 21.6 C 0 km/h
1437 27-06-2020 23:40:00 21.5 C 14.14 g/m*3 21.5 C 0 km/h
1438 27-06-2020 23:45:00 21.5 C 13.95 g/m*3 21.5 C 4.8 km/h
1439 27-06-2020 23:50:00 21.6 C 14.22 g/m*3 21.6 C 1.6 km/h
1440 27-06-2020 23:55:00 21.6 C 14.22 g/m*3 21.6 C 1.6 km/h

Legende:
   Min
   Max


Maximal/Minimal-Werte vom 23.06.2020 - 27.06.2020

Sensor Min Max Avg
Temp
(Aussen-T/F)
10.7 °C
23-06-2020  05:40:00
32.1 °C
26-06-2020  16:40:00
21.38 °C
Abs-Feuchte
(Aussen-T/F)
7.03 g/m*3
24-06-2020  18:10:00
15.83 g/m*3
27-06-2020  13:55:00
12.2 g/m*3
Windchill
(Aussen-T/F)
10.7 C
23-06-2020  05:40:00
32.1 C
26-06-2020  16:40:00
21.36 C

Die Daten stammen von einer Davis Vantage Pro 2 Wetter-Station und werden unter Linux mit der Software wview2wettercgi und aufbereitet. Alle Angaben erfolgen ohne Gewähr für ihre Vollständigkeit oder Richtigkeit.
Kontakt: Rainer Krienke krienke@uni-koblenz.de . Meine Webseiten an der Uni Koblenz oder privat.
Version: $Revision: 0.78 $